BAW9SWA KSAN-EGLL
Flight info
| Callsign | BAW9SWA |
|---|---|
| Flight time | 9h 52m |
| Altitude | 35000 |
| Route | ZZOOO4 MTBAL DCT EED DCT KD45Q DCT KD57S DCT KD69U DCT KD84W DCT KP09Y/N0497F370 DCT KP21A DCT KOBID DCT KAIIN DCT 56N090W 60N080W DCT BEPEG DCT NALDI/M085F390 DCT AVPUT DCT 66N050W 6530N04000W 64N030W 6130N02000W DCT ERAKA/N0480F390 DCT ETSOM DCT AKOMU DCT VAMEB DCT NUGRA |
| Aircraft | A35K/H-SDE2E3GHIJ3J4J5LM1ORWXY/LB1D1 |
Departure
| Time | 2026-04-23 23:39 |
|---|---|
| Airport | San Diego International Airport (KSAN) |
Arrival
| Time | 2026-04-24 09:31 |
|---|---|
| Airport | London Heathrow Airport (EGLL) |
| Time | Latitude | Longitude | Altitude | Speed | Heading |
|---|---|---|---|---|---|
| 2026-04-23 22:35 | 32.73271 | -117.20548 | 29 ft | 0 kts | 163° |
| 2026-04-23 23:08 | 32.73272 | -117.20548 | 28 ft | 2 kts | 163° |
| 2026-04-23 23:09 | 32.73296 | -117.20559 | 28 ft | 4 kts | 154° |
| 2026-04-23 23:09 | 32.73317 | -117.20570 | 27 ft | 3 kts | 163° |
| 2026-04-23 23:09 | 32.73341 | -117.20582 | 28 ft | 4 kts | 137° |
| 2026-04-23 23:09 | 32.73354 | -117.20607 | 26 ft | 4 kts | 96° |
| 2026-04-23 23:10 | 32.73353 | -117.20638 | 25 ft | 4 kts | 73° |
| 2026-04-23 23:10 | 32.73345 | -117.20669 | 27 ft | 4 kts | 78° |
| 2026-04-23 23:10 | 32.73343 | -117.20682 | 28 ft | 0 kts | 91° |
| 2026-04-23 23:15 | 32.73318 | -117.20600 | 25 ft | 11 kts | 118° |
| 2026-04-23 23:15 | 32.73271 | -117.20550 | 28 ft | 6 kts | 161° |
| 2026-04-23 23:16 | 32.73267 | -117.20548 | 28 ft | 0 kts | 160° |
| 2026-04-23 23:25 | 32.73282 | -117.20554 | 27 ft | 4 kts | 159° |
| 2026-04-23 23:26 | 32.73307 | -117.20566 | 27 ft | 4 kts | 161° |
| 2026-04-23 23:26 | 32.73329 | -117.20574 | 27 ft | 4 kts | 153° |
| 2026-04-23 23:26 | 32.73348 | -117.20593 | 27 ft | 4 kts | 116° |
| 2026-04-23 23:26 | 32.73354 | -117.20622 | 25 ft | 4 kts | 83° |
| 2026-04-23 23:27 | 32.73348 | -117.20653 | 25 ft | 4 kts | 72° |
| 2026-04-23 23:27 | 32.73342 | -117.20682 | 28 ft | 2 kts | 90° |
| 2026-04-23 23:27 | 32.73342 | -117.20685 | 28 ft | 0 kts | 91° |
| 2026-04-23 23:30 | 32.73342 | -117.20683 | 28 ft | 2 kts | 91° |
| 2026-04-23 23:30 | 32.73341 | -117.20630 | 25 ft | 8 kts | 86° |
| 2026-04-23 23:31 | 32.73368 | -117.20578 | 28 ft | 8 kts | 29° |
| 2026-04-23 23:31 | 32.73421 | -117.20557 | 28 ft | 8 kts | 360° |
| 2026-04-23 23:31 | 32.73479 | -117.20548 | 28 ft | 8 kts | 32° |
| 2026-04-23 23:31 | 32.73521 | -117.20497 | 28 ft | 9 kts | 51° |
| 2026-04-23 23:32 | 32.73567 | -117.20435 | 28 ft | 11 kts | 49° |
| 2026-04-23 23:32 | 32.73586 | -117.20348 | 28 ft | 12 kts | 94° |
| 2026-04-23 23:32 | 32.73563 | -117.20248 | 28 ft | 13 kts | 107° |
| 2026-04-23 23:32 | 32.73536 | -117.20142 | 29 ft | 15 kts | 105° |
| 2026-04-23 23:33 | 32.73528 | -117.20105 | 28 ft | 15 kts | 105° |
| 2026-04-23 23:33 | 32.73508 | -117.20019 | 28 ft | 17 kts | 105° |
| 2026-04-23 23:33 | 32.73476 | -117.19886 | 29 ft | 18 kts | 105° |
| 2026-04-23 23:34 | 32.73445 | -117.19755 | 29 ft | 19 kts | 106° |
| 2026-04-23 23:34 | 32.73404 | -117.19596 | 29 ft | 21 kts | 107° |
| 2026-04-23 23:34 | 32.73362 | -117.19425 | 28 ft | 22 kts | 104° |
| 2026-04-23 23:34 | 32.73320 | -117.19241 | 28 ft | 24 kts | 106° |
| 2026-04-23 23:35 | 32.73273 | -117.19049 | 28 ft | 25 kts | 106° |
| 2026-04-23 23:35 | 32.73225 | -117.18850 | 28 ft | 26 kts | 106° |
| 2026-04-23 23:35 | 32.73188 | -117.18700 | 21 ft | 17 kts | 106° |
| 2026-04-23 23:35 | 32.73153 | -117.18557 | 20 ft | 19 kts | 106° |
| 2026-04-23 23:36 | 32.73116 | -117.18401 | 20 ft | 20 kts | 105° |
| 2026-04-23 23:36 | 32.73080 | -117.18252 | 20 ft | 22 kts | 106° |
| 2026-04-23 23:36 | 32.73037 | -117.18074 | 20 ft | 23 kts | 107° |
| 2026-04-23 23:36 | 32.72994 | -117.17900 | 20 ft | 20 kts | 107° |
| 2026-04-23 23:37 | 32.72956 | -117.17746 | 20 ft | 12 kts | 95° |
| 2026-04-23 23:37 | 32.72959 | -117.17671 | 20 ft | 0 kts | 77° |
| 2026-04-23 23:37 | 32.72960 | -117.17667 | 20 ft | 1 kts | 77° |
| 2026-04-23 23:37 | 32.73003 | -117.17622 | 20 ft | 11 kts | 8° |
| 2026-04-23 23:38 | 32.73045 | -117.17683 | 20 ft | 10 kts | 287° |
| 2026-04-23 23:38 | 32.73067 | -117.17769 | 20 ft | 12 kts | 287° |
| 2026-04-23 23:38 | 32.73092 | -117.17866 | 20 ft | 13 kts | 287° |
| 2026-04-23 23:38 | 32.73149 | -117.18105 | 19 ft | 61 kts | 286° |
| 2026-04-23 23:39 | 32.73327 | -117.18850 | 28 ft | 125 kts | 286° |
| 2026-04-23 23:39 | 32.73607 | -117.20001 | 105 ft | 168 kts | 286° |
| 2026-04-23 23:39 | 32.73951 | -117.21382 | 830 ft | 167 kts | 286° |
| 2026-04-23 23:39 | 32.74288 | -117.22723 | 1468 ft | 173 kts | 285° |
| 2026-04-23 23:40 | 32.74625 | -117.24130 | 1897 ft | 178 kts | 284° |
| 2026-04-23 23:40 | 32.74848 | -117.25584 | 2510 ft | 179 kts | 272° |
| 2026-04-23 23:40 | 32.74630 | -117.27042 | 2978 ft | 184 kts | 247° |
| 2026-04-23 23:40 | 32.73849 | -117.28292 | 3279 ft | 199 kts | 221° |
| 2026-04-23 23:41 | 32.72534 | -117.28994 | 3488 ft | 221 kts | 190° |
| 2026-04-23 23:41 | 32.70964 | -117.28765 | 3791 ft | 237 kts | 161° |
| 2026-04-23 23:41 | 32.69429 | -117.27974 | 4267 ft | 244 kts | 156° |
| 2026-04-23 23:41 | 32.67878 | -117.27119 | 4844 ft | 247 kts | 156° |
| 2026-04-23 23:42 | 32.66307 | -117.26270 | 5387 ft | 251 kts | 157° |
| 2026-04-23 23:42 | 32.64711 | -117.25363 | 5896 ft | 257 kts | 150° |
| 2026-04-23 23:42 | 32.63395 | -117.23912 | 6349 ft | 265 kts | 122° |
| 2026-04-23 23:42 | 32.62794 | -117.21833 | 6626 ft | 278 kts | 97° |
| 2026-04-23 23:43 | 32.62587 | -117.19510 | 6984 ft | 288 kts | 94° |
| 2026-04-23 23:43 | 32.62408 | -117.17086 | 7495 ft | 294 kts | 95° |
| 2026-04-23 23:43 | 32.62215 | -117.14665 | 8080 ft | 296 kts | 95° |
| 2026-04-23 23:43 | 32.62015 | -117.12258 | 8684 ft | 298 kts | 95° |
| 2026-04-23 23:44 | 32.62122 | -117.09794 | 9205 ft | 302 kts | 75° |
| 2026-04-23 23:44 | 32.62792 | -117.07423 | 9776 ft | 306 kts | 67° |
| 2026-04-23 23:44 | 32.63586 | -117.05059 | 10240 ft | 313 kts | 67° |
| 2026-04-23 23:44 | 32.64411 | -117.02601 | 10478 ft | 328 kts | 67° |
| 2026-04-23 23:45 | 32.65245 | -117.00088 | 10733 ft | 342 kts | 67° |
| 2026-04-23 23:45 | 32.66117 | -116.97406 | 10993 ft | 355 kts | 69° |
| 2026-04-23 23:45 | 32.66668 | -116.94495 | 11195 ft | 369 kts | 84° |
| 2026-04-23 23:45 | 32.66798 | -116.91396 | 11431 ft | 382 kts | 88° |
| 2026-04-23 23:46 | 32.66857 | -116.88198 | 11667 ft | 394 kts | 89° |
| 2026-04-23 23:46 | 32.66917 | -116.84902 | 11877 ft | 405 kts | 88° |
| 2026-04-23 23:46 | 32.67058 | -116.81522 | 12142 ft | 414 kts | 82° |
| 2026-04-23 23:46 | 32.67747 | -116.78240 | 12511 ft | 417 kts | 66° |
| 2026-04-23 23:47 | 32.69196 | -116.75281 | 12944 ft | 415 kts | 49° |
| 2026-04-23 23:47 | 32.71290 | -116.72945 | 13360 ft | 413 kts | 31° |
| 2026-04-23 23:47 | 32.73833 | -116.71417 | 13767 ft | 409 kts | 14° |
| 2026-04-23 23:47 | 32.76558 | -116.70494 | 14202 ft | 408 kts | 13° |
| 2026-04-23 23:48 | 32.79252 | -116.69349 | 14617 ft | 413 kts | 17° |
| 2026-04-23 23:48 | 32.81929 | -116.68073 | 15006 ft | 416 kts | 18° |
| 2026-04-23 23:48 | 32.84619 | -116.66763 | 15417 ft | 419 kts | 18° |
| 2026-04-23 23:48 | 32.87320 | -116.65441 | 15848 ft | 421 kts | 18° |
| 2026-04-23 23:49 | 32.92774 | -116.62763 | 16673 ft | 426 kts | 18° |
| 2026-04-23 23:49 | 32.95523 | -116.61414 | 17089 ft | 428 kts | 18° |
| 2026-04-23 23:49 | 32.98287 | -116.60055 | 17498 ft | 431 kts | 17° |
| 2026-04-23 23:50 | 33.01069 | -116.58687 | 17881 ft | 433 kts | 17° |
| 2026-04-23 23:50 | 33.03853 | -116.57285 | 18288 ft | 436 kts | 18° |
| 2026-04-23 23:50 | 33.06642 | -116.55825 | 18579 ft | 439 kts | 17° |
| 2026-04-23 23:50 | 33.09459 | -116.54367 | 18799 ft | 443 kts | 18° |
| 2026-04-23 23:51 | 33.12289 | -116.52876 | 19093 ft | 446 kts | 18° |
| 2026-04-23 23:51 | 33.15127 | -116.51373 | 19426 ft | 447 kts | 18° |
| 2026-04-23 23:51 | 33.17983 | -116.49863 | 19689 ft | 450 kts | 18° |
| 2026-04-23 23:51 | 33.20850 | -116.48349 | 20001 ft | 452 kts | 18° |
| 2026-04-23 23:52 | 33.23697 | -116.46855 | 20288 ft | 453 kts | 18° |
| 2026-04-23 23:52 | 33.26588 | -116.45338 | 20589 ft | 455 kts | 18° |
| 2026-04-23 23:52 | 33.29510 | -116.43808 | 20895 ft | 457 kts | 18° |
| 2026-04-23 23:52 | 33.32436 | -116.42279 | 21158 ft | 459 kts | 18° |
| 2026-04-23 23:53 | 33.35369 | -116.40721 | 21407 ft | 463 kts | 19° |
| 2026-04-23 23:53 | 33.38213 | -116.38855 | 21700 ft | 471 kts | 28° |
| 2026-04-23 23:53 | 33.40790 | -116.36378 | 21978 ft | 480 kts | 40° |
| 2026-04-23 23:53 | 33.42986 | -116.33323 | 22264 ft | 487 kts | 50° |
| 2026-04-23 23:54 | 33.44959 | -116.30073 | 22554 ft | 490 kts | 51° |
| 2026-04-23 23:54 | 33.46962 | -116.26698 | 22833 ft | 492 kts | 51° |
| 2026-04-23 23:54 | 33.48923 | -116.23395 | 23152 ft | 491 kts | 51° |
| 2026-04-23 23:54 | 33.50906 | -116.20065 | 23522 ft | 492 kts | 51° |
| 2026-04-23 23:55 | 33.52907 | -116.16714 | 23749 ft | 494 kts | 51° |
| 2026-04-23 23:55 | 33.54903 | -116.13365 | 24021 ft | 495 kts | 51° |
| 2026-04-23 23:55 | 33.56909 | -116.09999 | 24257 ft | 497 kts | 51° |
| 2026-04-23 23:55 | 33.58927 | -116.06613 | 24500 ft | 499 kts | 51° |
| 2026-04-23 23:56 | 33.61050 | -116.03323 | 24738 ft | 499 kts | 47° |
| 2026-04-23 23:56 | 33.63311 | -116.00166 | 25014 ft | 499 kts | 45° |
| 2026-04-23 23:56 | 33.65635 | -115.97068 | 25255 ft | 500 kts | 44° |
| 2026-04-23 23:56 | 33.67998 | -115.93980 | 25493 ft | 502 kts | 44° |
| 2026-04-23 23:57 | 33.70374 | -115.90890 | 25745 ft | 504 kts | 44° |
| 2026-04-23 23:57 | 33.72751 | -115.87788 | 25983 ft | 506 kts | 44° |
| 2026-04-23 23:57 | 33.75137 | -115.84655 | 26238 ft | 508 kts | 44° |
| 2026-04-23 23:57 | 33.77487 | -115.81552 | 26496 ft | 510 kts | 44° |
| 2026-04-23 23:58 | 33.79874 | -115.78387 | 26758 ft | 512 kts | 44° |
| 2026-04-23 23:58 | 33.82267 | -115.75206 | 27008 ft | 513 kts | 44° |
| 2026-04-23 23:58 | 33.84665 | -115.72014 | 27275 ft | 515 kts | 44° |
| 2026-04-23 23:58 | 33.87068 | -115.68810 | 27534 ft | 517 kts | 44° |
| 2026-04-23 23:59 | 33.89484 | -115.65587 | 27785 ft | 519 kts | 44° |
| 2026-04-23 23:59 | 33.91909 | -115.62350 | 28046 ft | 521 kts | 44° |
| 2026-04-23 23:59 | 33.94341 | -115.59103 | 28278 ft | 523 kts | 44° |
| 2026-04-23 23:59 | 33.96780 | -115.55843 | 28534 ft | 525 kts | 44° |
| 2026-04-24 00:00 | 33.99229 | -115.52566 | 28763 ft | 527 kts | 44° |
| 2026-04-24 00:00 | 34.01682 | -115.49282 | 28987 ft | 528 kts | 44° |
| 2026-04-24 00:00 | 34.04142 | -115.45984 | 29227 ft | 530 kts | 44° |
| 2026-04-24 00:00 | 34.06612 | -115.42669 | 29500 ft | 531 kts | 44° |
| 2026-04-24 00:01 | 34.09082 | -115.39350 | 29854 ft | 529 kts | 44° |
| 2026-04-24 00:01 | 34.11538 | -115.36047 | 30169 ft | 529 kts | 44° |
| 2026-04-24 00:01 | 34.13995 | -115.32740 | 30439 ft | 529 kts | 44° |
| 2026-04-24 00:01 | 34.16445 | -115.29439 | 30769 ft | 527 kts | 44° |
| 2026-04-24 00:02 | 34.18893 | -115.26138 | 31068 ft | 527 kts | 44° |
| 2026-04-24 00:02 | 34.21308 | -115.22880 | 31339 ft | 527 kts | 44° |
| 2026-04-24 00:02 | 34.23760 | -115.19569 | 31603 ft | 527 kts | 44° |
| 2026-04-24 00:02 | 34.26212 | -115.16255 | 31877 ft | 527 kts | 44° |
| 2026-04-24 00:03 | 34.28655 | -115.12950 | 32130 ft | 527 kts | 44° |
| 2026-04-24 00:03 | 34.31107 | -115.09630 | 32360 ft | 529 kts | 44° |
| 2026-04-24 00:03 | 34.33566 | -115.06298 | 32507 ft | 531 kts | 44° |
| 2026-04-24 00:03 | 34.35996 | -115.03000 | 32780 ft | 530 kts | 44° |
| 2026-04-24 00:04 | 34.38447 | -114.99670 | 33095 ft | 529 kts | 44° |
| 2026-04-24 00:04 | 34.40894 | -114.96342 | 33394 ft | 529 kts | 44° |
| 2026-04-24 00:04 | 34.43339 | -114.93013 | 33676 ft | 528 kts | 44° |
| 2026-04-24 00:04 | 34.45786 | -114.89679 | 33926 ft | 528 kts | 44° |
| 2026-04-24 00:05 | 34.48230 | -114.86348 | 34146 ft | 528 kts | 44° |
| 2026-04-24 00:05 | 34.50674 | -114.83013 | 34357 ft | 529 kts | 44° |
| 2026-04-24 00:05 | 34.53114 | -114.79680 | 34541 ft | 529 kts | 44° |
| 2026-04-24 00:05 | 34.55556 | -114.76342 | 34751 ft | 529 kts | 44° |
| 2026-04-24 00:06 | 34.58002 | -114.72995 | 34863 ft | 532 kts | 44° |
| 2026-04-24 00:06 | 34.60464 | -114.69626 | 34889 ft | 536 kts | 44° |
| 2026-04-24 00:06 | 34.65405 | -114.62847 | 34899 ft | 536 kts | 44° |
| 2026-04-24 00:07 | 34.70363 | -114.56029 | 34896 ft | 539 kts | 44° |
| 2026-04-24 00:07 | 34.75323 | -114.49196 | 34894 ft | 539 kts | 44° |
| 2026-04-24 00:08 | 34.80191 | -114.42250 | 34884 ft | 541 kts | 47° |
| 2026-04-24 00:08 | 34.84786 | -114.35059 | 34854 ft | 542 kts | 48° |
| 2026-04-24 00:09 | 34.89404 | -114.27776 | 34863 ft | 543 kts | 47° |
| 2026-04-24 00:09 | 34.94057 | -114.20527 | 34862 ft | 544 kts | 47° |
| 2026-04-24 00:10 | 34.98734 | -114.13280 | 34861 ft | 544 kts | 47° |
| 2026-04-24 00:10 | 35.03419 | -114.06020 | 34865 ft | 544 kts | 47° |
| 2026-04-24 00:11 | 35.08093 | -113.98755 | 34866 ft | 543 kts | 47° |
| 2026-04-24 00:11 | 35.12726 | -113.91537 | 34865 ft | 543 kts | 47° |
| 2026-04-24 00:12 | 35.17384 | -113.84265 | 34971 ft | 543 kts | 47° |
| 2026-04-24 00:12 | 35.22040 | -113.76980 | 34957 ft | 543 kts | 47° |
| 2026-04-24 00:13 | 35.26687 | -113.69694 | 34939 ft | 543 kts | 47° |
| 2026-04-24 00:13 | 35.31331 | -113.62399 | 34906 ft | 543 kts | 47° |
| 2026-04-24 00:14 | 35.35947 | -113.55131 | 34890 ft | 544 kts | 47° |
| 2026-04-24 00:14 | 35.40597 | -113.47797 | 34885 ft | 545 kts | 47° |
| 2026-04-24 00:15 | 35.45242 | -113.40453 | 34891 ft | 545 kts | 47° |
| 2026-04-24 00:15 | 35.49893 | -113.33086 | 34898 ft | 546 kts | 47° |
| 2026-04-24 00:16 | 35.54544 | -113.25701 | 34894 ft | 546 kts | 47° |
| 2026-04-24 00:16 | 35.59189 | -113.18309 | 34900 ft | 546 kts | 47° |
| 2026-04-24 00:17 | 35.63834 | -113.10904 | 34905 ft | 546 kts | 47° |
| 2026-04-24 00:17 | 35.68452 | -113.03533 | 34914 ft | 548 kts | 47° |
| 2026-04-24 00:18 | 35.73134 | -112.96033 | 34917 ft | 550 kts | 47° |
| 2026-04-24 00:18 | 35.77760 | -112.88606 | 34918 ft | 550 kts | 47° |
| 2026-04-24 00:19 | 35.82419 | -112.81111 | 34920 ft | 550 kts | 47° |
| 2026-04-24 00:19 | 35.87065 | -112.73622 | 34913 ft | 550 kts | 47° |
| 2026-04-24 00:20 | 35.90923 | -112.67392 | 34916 ft | 550 kts | 47° |
| 2026-04-24 00:20 | 35.95563 | -112.59884 | 34916 ft | 550 kts | 47° |
| 2026-04-24 00:21 | 36.00199 | -112.52365 | 34918 ft | 550 kts | 47° |
| 2026-04-24 00:21 | 36.04839 | -112.44825 | 34994 ft | 552 kts | 47° |
| 2026-04-24 00:22 | 36.09487 | -112.37256 | 34995 ft | 553 kts | 47° |
| 2026-04-24 00:22 | 36.14103 | -112.29720 | 34998 ft | 553 kts | 47° |
| 2026-04-24 00:23 | 36.18747 | -112.22115 | 34996 ft | 554 kts | 47° |
| 2026-04-24 00:23 | 36.23392 | -112.14509 | 34965 ft | 553 kts | 47° |
| 2026-04-24 00:24 | 36.28031 | -112.06890 | 34944 ft | 553 kts | 47° |
| 2026-04-24 00:24 | 36.32653 | -111.99271 | 34911 ft | 553 kts | 47° |
| 2026-04-24 00:25 | 36.37284 | -111.91629 | 34892 ft | 553 kts | 47° |
| 2026-04-24 00:25 | 36.41899 | -111.83982 | 34893 ft | 553 kts | 47° |
| 2026-04-24 00:26 | 36.46512 | -111.76327 | 34871 ft | 553 kts | 47° |
| 2026-04-24 00:26 | 36.51095 | -111.68717 | 34867 ft | 553 kts | 47° |
| 2026-04-24 00:27 | 36.55704 | -111.61044 | 34870 ft | 554 kts | 47° |
| 2026-04-24 00:27 | 36.60303 | -111.53368 | 34863 ft | 554 kts | 48° |
| 2026-04-24 00:28 | 36.64909 | -111.45662 | 34882 ft | 554 kts | 48° |
| 2026-04-24 00:28 | 36.69502 | -111.37960 | 34896 ft | 554 kts | 47° |
| 2026-04-24 00:29 | 36.74075 | -111.30276 | 34903 ft | 555 kts | 47° |
| 2026-04-24 00:29 | 36.78674 | -111.22527 | 34895 ft | 555 kts | 48° |
| 2026-04-24 00:30 | 36.83264 | -111.14775 | 34886 ft | 555 kts | 48° |
| 2026-04-24 00:30 | 36.87851 | -111.07012 | 34872 ft | 556 kts | 48° |
| 2026-04-24 00:31 | 36.92443 | -110.99224 | 34864 ft | 556 kts | 48° |
| 2026-04-24 00:31 | 36.96999 | -110.91478 | 34864 ft | 556 kts | 48° |
| 2026-04-24 00:32 | 37.01581 | -110.83668 | 34897 ft | 556 kts | 48° |
| 2026-04-24 00:32 | 37.06167 | -110.75839 | 34876 ft | 558 kts | 48° |
| 2026-04-24 00:33 | 37.10761 | -110.67976 | 34871 ft | 559 kts | 48° |
| 2026-04-24 00:33 | 37.15347 | -110.60103 | 34865 ft | 559 kts | 48° |
| 2026-04-24 00:34 | 37.19904 | -110.52261 | 34861 ft | 559 kts | 48° |
| 2026-04-24 00:34 | 37.24486 | -110.44362 | 34871 ft | 560 kts | 48° |
| 2026-04-24 00:35 | 37.29073 | -110.36435 | 34868 ft | 560 kts | 48° |
| 2026-04-24 00:35 | 37.33652 | -110.28502 | 34873 ft | 560 kts | 48° |
| 2026-04-24 00:36 | 37.38232 | -110.20553 | 34883 ft | 562 kts | 48° |
| 2026-04-24 00:36 | 37.42787 | -110.12622 | 34904 ft | 563 kts | 48° |
| 2026-04-24 00:37 | 37.47374 | -110.04624 | 34906 ft | 564 kts | 48° |
| 2026-04-24 00:37 | 37.52649 | -109.97578 | 34904 ft | 546 kts | 31° |
| 2026-04-24 00:38 | 37.58563 | -109.91624 | 34907 ft | 543 kts | 29° |
| 2026-04-24 00:38 | 37.64572 | -109.85847 | 34950 ft | 542 kts | 28° |
| 2026-04-24 00:39 | 37.70575 | -109.80077 | 34921 ft | 543 kts | 29° |
| 2026-04-24 00:39 | 37.76539 | -109.74298 | 34922 ft | 543 kts | 29° |
| 2026-04-24 00:40 | 37.82530 | -109.68462 | 34945 ft | 543 kts | 29° |
| 2026-04-24 00:40 | 37.88517 | -109.62614 | 34926 ft | 543 kts | 29° |
| 2026-04-24 00:41 | 37.94499 | -109.56756 | 34923 ft | 542 kts | 29° |
| 2026-04-24 00:41 | 38.00453 | -109.50909 | 34928 ft | 541 kts | 29° |
| 2026-04-24 00:42 | 38.06398 | -109.45067 | 34931 ft | 541 kts | 29° |
| 2026-04-24 00:42 | 38.12348 | -109.39207 | 34929 ft | 541 kts | 29° |
| 2026-04-24 00:43 | 38.18294 | -109.33339 | 34979 ft | 541 kts | 30° |
| 2026-04-24 00:43 | 38.24223 | -109.27472 | 34924 ft | 539 kts | 30° |
| 2026-04-24 00:44 | 38.30137 | -109.21608 | 34926 ft | 539 kts | 30° |
| 2026-04-24 00:44 | 38.36054 | -109.15733 | 34921 ft | 539 kts | 30° |
| 2026-04-24 00:45 | 38.41968 | -109.09846 | 34918 ft | 539 kts | 30° |
| 2026-04-24 00:45 | 38.47878 | -109.03951 | 34923 ft | 538 kts | 31° |
| 2026-04-24 00:46 | 38.53726 | -108.98101 | 34918 ft | 537 kts | 31° |
| 2026-04-24 00:46 | 38.59605 | -108.92211 | 34921 ft | 537 kts | 31° |
| 2026-04-24 00:47 | 38.65475 | -108.86317 | 34921 ft | 537 kts | 31° |
| 2026-04-24 00:47 | 38.71343 | -108.80412 | 34940 ft | 536 kts | 31° |
| 2026-04-24 00:48 | 38.77194 | -108.74511 | 34897 ft | 533 kts | 31° |
| 2026-04-24 00:48 | 38.83017 | -108.68627 | 34902 ft | 533 kts | 31° |
| 2026-04-24 00:49 | 38.88838 | -108.62734 | 34916 ft | 532 kts | 31° |
| 2026-04-24 00:49 | 38.94650 | -108.56838 | 34939 ft | 532 kts | 31° |
| 2026-04-24 00:50 | 39.00424 | -108.50966 | 34949 ft | 530 kts | 32° |
| 2026-04-24 00:50 | 39.06190 | -108.45085 | 34977 ft | 528 kts | 32° |
| 2026-04-24 00:51 | 39.11950 | -108.39202 | 34961 ft | 528 kts | 32° |
| 2026-04-24 00:51 | 39.17702 | -108.33316 | 34947 ft | 528 kts | 32° |
| 2026-04-24 00:52 | 39.23456 | -108.27414 | 34919 ft | 528 kts | 32° |
| 2026-04-24 00:52 | 39.29207 | -108.21502 | 34893 ft | 528 kts | 32° |
| 2026-04-24 00:53 | 39.34951 | -108.15583 | 34877 ft | 528 kts | 32° |
| 2026-04-24 00:53 | 39.40662 | -108.09687 | 34877 ft | 528 kts | 32° |
| 2026-04-24 00:54 | 39.46402 | -108.03748 | 34888 ft | 528 kts | 32° |
| 2026-04-24 00:54 | 39.52158 | -107.97813 | 34892 ft | 526 kts | 31° |
| 2026-04-24 00:55 | 39.57991 | -107.92165 | 34891 ft | 523 kts | 30° |
| 2026-04-24 00:55 | 39.63857 | -107.86592 | 34892 ft | 523 kts | 30° |
| 2026-04-24 00:56 | 39.69683 | -107.81000 | 34952 ft | 523 kts | 30° |
| 2026-04-24 00:56 | 39.75519 | -107.75344 | 34963 ft | 523 kts | 31° |
| 2026-04-24 00:57 | 39.81341 | -107.69674 | 34931 ft | 522 kts | 31° |
| 2026-04-24 00:58 | 39.90055 | -107.61170 | 34910 ft | 522 kts | 31° |
| 2026-04-24 00:58 | 39.95862 | -107.55492 | 34924 ft | 522 kts | 31° |
| 2026-04-24 00:59 | 40.01630 | -107.49840 | 34936 ft | 522 kts | 31° |
| 2026-04-24 00:59 | 40.07424 | -107.44147 | 34933 ft | 521 kts | 31° |
| 2026-04-24 01:00 | 40.13214 | -107.38447 | 34937 ft | 521 kts | 31° |
| 2026-04-24 01:00 | 40.19007 | -107.32735 | 34952 ft | 522 kts | 31° |
| 2026-04-24 01:01 | 40.24801 | -107.27005 | 34969 ft | 522 kts | 31° |
| 2026-04-24 01:01 | 40.30591 | -107.21265 | 34967 ft | 521 kts | 31° |
| 2026-04-24 01:02 | 40.36371 | -107.15523 | 34975 ft | 521 kts | 31° |
| 2026-04-24 01:02 | 40.42144 | -107.09776 | 34993 ft | 521 kts | 31° |
| 2026-04-24 01:03 | 40.47921 | -107.04015 | 34990 ft | 521 kts | 32° |
| 2026-04-24 01:03 | 40.53653 | -106.98285 | 34985 ft | 520 kts | 32° |
| 2026-04-24 01:04 | 40.59409 | -106.92515 | 34968 ft | 519 kts | 32° |
| 2026-04-24 01:04 | 40.65162 | -106.86737 | 34982 ft | 519 kts | 32° |
| 2026-04-24 01:05 | 40.70908 | -106.80954 | 34973 ft | 519 kts | 32° |
| 2026-04-24 01:05 | 40.76651 | -106.75163 | 34977 ft | 520 kts | 32° |
| 2026-04-24 01:06 | 40.82390 | -106.69362 | 34950 ft | 519 kts | 32° |
| 2026-04-24 01:06 | 40.88100 | -106.63585 | 34938 ft | 520 kts | 32° |
| 2026-04-24 01:07 | 40.93845 | -106.57748 | 34920 ft | 520 kts | 32° |
| 2026-04-24 01:07 | 40.99586 | -106.51900 | 34923 ft | 520 kts | 32° |
| 2026-04-24 01:08 | 41.05346 | -106.46025 | 34903 ft | 524 kts | 32° |
| 2026-04-24 01:08 | 41.10146 | -106.41120 | 34891 ft | 525 kts | 32° |
| 2026-04-24 01:09 | 41.15933 | -106.35188 | 34884 ft | 525 kts | 32° |
| 2026-04-24 01:09 | 41.21697 | -106.29276 | 34865 ft | 522 kts | 33° |
| 2026-04-24 01:10 | 41.28403 | -106.22373 | 34865 ft | 523 kts | 33° |
| 2026-04-24 01:10 | 41.33183 | -106.17443 | 34844 ft | 524 kts | 33° |
| 2026-04-24 01:11 | 41.38947 | -106.11485 | 34828 ft | 524 kts | 34° |
| 2026-04-24 01:11 | 41.44699 | -106.05525 | 34823 ft | 524 kts | 34° |
| 2026-04-24 01:12 | 41.50546 | -105.99751 | 34819 ft | 520 kts | 27° |
| 2026-04-24 01:12 | 41.56600 | -105.94920 | 34805 ft | 522 kts | 25° |
| 2026-04-24 01:13 | 41.62918 | -105.90083 | 34792 ft | 523 kts | 25° |
| 2026-04-24 01:13 | 41.69241 | -105.85261 | 34783 ft | 523 kts | 25° |
| 2026-04-24 01:14 | 41.75561 | -105.80411 | 34781 ft | 523 kts | 25° |
| 2026-04-24 01:14 | 41.81873 | -105.75545 | 34770 ft | 524 kts | 25° |
| 2026-04-24 01:15 | 41.88192 | -105.70658 | 34772 ft | 524 kts | 25° |
| 2026-04-24 01:15 | 41.94512 | -105.65761 | 34798 ft | 524 kts | 25° |
| 2026-04-24 01:16 | 42.00822 | -105.60859 | 34767 ft | 524 kts | 25° |
| 2026-04-24 01:16 | 42.07126 | -105.55951 | 34758 ft | 524 kts | 25° |
| 2026-04-24 01:17 | 42.13407 | -105.51050 | 34752 ft | 524 kts | 25° |
| 2026-04-24 01:17 | 42.19714 | -105.46117 | 34759 ft | 524 kts | 25° |
| 2026-04-24 01:18 | 42.26029 | -105.41169 | 34750 ft | 525 kts | 25° |
| 2026-04-24 01:18 | 42.32289 | -105.36250 | 34750 ft | 524 kts | 25° |
| 2026-04-24 01:19 | 42.38603 | -105.31276 | 34763 ft | 524 kts | 25° |
| 2026-04-24 01:19 | 42.44904 | -105.26301 | 34763 ft | 523 kts | 25° |
| 2026-04-24 01:20 | 42.51176 | -105.21336 | 34783 ft | 521 kts | 26° |
| 2026-04-24 01:20 | 42.57403 | -105.16397 | 34782 ft | 521 kts | 26° |
| 2026-04-24 01:21 | 42.63669 | -105.11416 | 34802 ft | 521 kts | 26° |
| 2026-04-24 01:21 | 42.69939 | -105.06421 | 34794 ft | 523 kts | 26° |
| 2026-04-24 01:22 | 42.76217 | -105.01405 | 34798 ft | 523 kts | 26° |
| 2026-04-24 01:22 | 42.82492 | -104.96381 | 34800 ft | 523 kts | 26° |
| 2026-04-24 01:23 | 42.88767 | -104.91346 | 34808 ft | 524 kts | 26° |
| 2026-04-24 01:23 | 42.95050 | -104.86292 | 34819 ft | 525 kts | 26° |
| 2026-04-24 01:24 | 43.01337 | -104.81220 | 34815 ft | 525 kts | 26° |
| 2026-04-24 01:24 | 43.07581 | -104.76172 | 34844 ft | 525 kts | 26° |
| 2026-04-24 01:25 | 43.13864 | -104.71081 | 34831 ft | 525 kts | 26° |
| 2026-04-24 01:25 | 43.20158 | -104.65968 | 34835 ft | 525 kts | 27° |
| 2026-04-24 01:26 | 43.26447 | -104.60847 | 34832 ft | 525 kts | 27° |
| 2026-04-24 01:26 | 43.32734 | -104.55716 | 34842 ft | 526 kts | 27° |
| 2026-04-24 01:27 | 43.39022 | -104.50572 | 34839 ft | 526 kts | 27° |
| 2026-04-24 01:27 | 43.45302 | -104.45420 | 34834 ft | 526 kts | 27° |
| 2026-04-24 01:28 | 43.51581 | -104.40257 | 34855 ft | 526 kts | 27° |
| 2026-04-24 01:28 | 43.57869 | -104.35074 | 34837 ft | 526 kts | 27° |
| 2026-04-24 01:29 | 43.64126 | -104.29904 | 34839 ft | 526 kts | 27° |
| 2026-04-24 01:29 | 43.70402 | -104.24706 | 34846 ft | 526 kts | 27° |
| 2026-04-24 01:30 | 43.76680 | -104.19497 | 34848 ft | 526 kts | 28° |
| 2026-04-24 01:30 | 43.82959 | -104.14272 | 34852 ft | 526 kts | 28° |
| 2026-04-24 01:31 | 43.89231 | -104.09035 | 34852 ft | 526 kts | 28° |
| 2026-04-24 01:31 | 43.95508 | -104.03781 | 34858 ft | 526 kts | 28° |
| 2026-04-24 01:32 | 44.01788 | -103.98533 | 34856 ft | 526 kts | 27° |
| 2026-04-24 01:32 | 44.08138 | -103.93635 | 34859 ft | 525 kts | 25° |
| 2026-04-24 01:33 | 44.14588 | -103.88821 | 34867 ft | 525 kts | 25° |
| 2026-04-24 01:33 | 44.21011 | -103.83967 | 34865 ft | 524 kts | 26° |
| 2026-04-24 01:34 | 44.27405 | -103.79069 | 34862 ft | 524 kts | 26° |
| 2026-04-24 01:34 | 44.33753 | -103.74178 | 34863 ft | 524 kts | 26° |
| 2026-04-24 01:35 | 44.40139 | -103.69248 | 34859 ft | 524 kts | 27° |
| 2026-04-24 01:35 | 44.46517 | -103.64312 | 34858 ft | 523 kts | 27° |
| 2026-04-24 01:36 | 44.52900 | -103.59367 | 34860 ft | 525 kts | 27° |
| 2026-04-24 01:36 | 44.59290 | -103.54398 | 34861 ft | 525 kts | 27° |
| 2026-04-24 01:37 | 44.65695 | -103.49404 | 34850 ft | 527 kts | 27° |
| 2026-04-24 01:37 | 44.72097 | -103.44400 | 34851 ft | 527 kts | 27° |
| 2026-04-24 01:38 | 44.78459 | -103.39416 | 34851 ft | 527 kts | 27° |
| 2026-04-24 01:38 | 44.84924 | -103.34341 | 34851 ft | 530 kts | 28° |
| 2026-04-24 01:39 | 44.91325 | -103.29300 | 34846 ft | 531 kts | 28° |
| 2026-04-24 01:39 | 44.97776 | -103.24206 | 34851 ft | 531 kts | 28° |
| 2026-04-24 01:40 | 45.04229 | -103.19098 | 34858 ft | 531 kts | 28° |
| 2026-04-24 01:40 | 45.10686 | -103.13974 | 34847 ft | 532 kts | 28° |
| 2026-04-24 01:41 | 45.17149 | -103.08831 | 34867 ft | 532 kts | 28° |
| 2026-04-24 01:41 | 45.23564 | -103.03714 | 34880 ft | 532 kts | 28° |
| 2026-04-24 01:42 | 45.30024 | -102.98547 | 34866 ft | 533 kts | 28° |
| 2026-04-24 01:42 | 45.36503 | -102.93350 | 34870 ft | 534 kts | 28° |
| 2026-04-24 01:43 | 45.42983 | -102.88139 | 34859 ft | 533 kts | 29° |
| 2026-04-24 01:43 | 45.49433 | -102.82939 | 34873 ft | 533 kts | 29° |
| 2026-04-24 01:44 | 45.55847 | -102.77754 | 34875 ft | 533 kts | 29° |
| 2026-04-24 01:44 | 45.62341 | -102.72490 | 34874 ft | 533 kts | 29° |
| 2026-04-24 01:45 | 45.68743 | -102.67287 | 34876 ft | 533 kts | 29° |
| 2026-04-24 01:45 | 45.75196 | -102.62030 | 34864 ft | 533 kts | 30° |
| 2026-04-24 01:46 | 45.81640 | -102.56765 | 34865 ft | 532 kts | 30° |
| 2026-04-24 01:46 | 45.88072 | -102.51494 | 34859 ft | 532 kts | 30° |
| 2026-04-24 01:47 | 45.94511 | -102.46204 | 34856 ft | 533 kts | 30° |
| 2026-04-24 01:47 | 46.00948 | -102.40901 | 34855 ft | 533 kts | 30° |
| 2026-04-24 01:48 | 46.07390 | -102.35583 | 34855 ft | 533 kts | 30° |
| 2026-04-24 01:48 | 46.13772 | -102.30298 | 34863 ft | 532 kts | 30° |
| 2026-04-24 01:49 | 46.20183 | -102.24971 | 34862 ft | 531 kts | 30° |
| 2026-04-24 01:49 | 46.26595 | -102.19631 | 34863 ft | 531 kts | 30° |
| 2026-04-24 01:50 | 46.32993 | -102.14289 | 34885 ft | 532 kts | 31° |
| 2026-04-24 01:50 | 46.39409 | -102.08918 | 34857 ft | 532 kts | 31° |
| 2026-04-24 01:51 | 46.45830 | -102.03528 | 34865 ft | 532 kts | 31° |
| 2026-04-24 01:51 | 46.52203 | -101.98128 | 35306 ft | 527 kts | 32° |
| 2026-04-24 01:51 | 46.55247 | -101.95315 | 35630 ft | 525 kts | 34° |
| 2026-04-24 01:52 | 46.58288 | -101.92361 | 35877 ft | 525 kts | 35° |
| 2026-04-24 01:52 | 46.61312 | -101.89373 | 36042 ft | 526 kts | 36° |
| 2026-04-24 01:52 | 46.64344 | -101.86379 | 36251 ft | 527 kts | 35° |
| 2026-04-24 01:52 | 46.67384 | -101.83396 | 36461 ft | 527 kts | 35° |
| 2026-04-24 01:53 | 46.70435 | -101.80425 | 36655 ft | 527 kts | 35° |
| 2026-04-24 01:53 | 46.73496 | -101.77460 | 36822 ft | 528 kts | 34° |
| 2026-04-24 01:53 | 46.76569 | -101.74491 | 36853 ft | 532 kts | 34° |
| 2026-04-24 01:54 | 46.82774 | -101.68494 | 36852 ft | 535 kts | 34° |
| 2026-04-24 01:54 | 46.87929 | -101.63501 | 36844 ft | 535 kts | 34° |
| 2026-04-24 01:55 | 46.95131 | -101.56498 | 36846 ft | 535 kts | 35° |
| 2026-04-24 01:55 | 47.00319 | -101.51438 | 36836 ft | 535 kts | 35° |
| 2026-04-24 01:56 | 47.06477 | -101.45416 | 36838 ft | 535 kts | 35° |
| 2026-04-24 01:56 | 47.12662 | -101.39350 | 36823 ft | 535 kts | 35° |
| 2026-04-24 01:57 | 47.18849 | -101.33263 | 36822 ft | 535 kts | 35° |
| 2026-04-24 01:57 | 47.25040 | -101.27157 | 36834 ft | 535 kts | 35° |
| 2026-04-24 01:58 | 47.31222 | -101.21043 | 36828 ft | 534 kts | 36° |
| 2026-04-24 01:58 | 47.37349 | -101.14966 | 36820 ft | 533 kts | 36° |
| 2026-04-24 01:59 | 47.43504 | -101.08843 | 36813 ft | 533 kts | 36° |
| 2026-04-24 01:59 | 47.49654 | -101.02707 | 36801 ft | 533 kts | 36° |
| 2026-04-24 02:00 | 47.55794 | -100.96563 | 36788 ft | 533 kts | 36° |
| 2026-04-24 02:00 | 47.61939 | -100.90397 | 36777 ft | 533 kts | 36° |
| 2026-04-24 02:01 | 47.68061 | -100.84236 | 36771 ft | 532 kts | 36° |
| 2026-04-24 02:01 | 47.74150 | -100.78092 | 36753 ft | 531 kts | 36° |
| 2026-04-24 02:02 | 47.80255 | -100.71912 | 36757 ft | 531 kts | 36° |
| 2026-04-24 02:02 | 47.86364 | -100.65710 | 36738 ft | 531 kts | 36° |
| 2026-04-24 02:03 | 47.95539 | -100.56364 | 36745 ft | 532 kts | 36° |
| 2026-04-24 02:03 | 48.01656 | -100.50109 | 36727 ft | 532 kts | 36° |
| 2026-04-24 02:04 | 48.07764 | -100.43845 | 36727 ft | 532 kts | 36° |
| 2026-04-24 02:04 | 48.13871 | -100.37564 | 36719 ft | 532 kts | 36° |
| 2026-04-24 02:05 | 48.19966 | -100.31277 | 36723 ft | 532 kts | 36° |
| 2026-04-24 02:05 | 48.26028 | -100.25005 | 36700 ft | 533 kts | 36° |
| 2026-04-24 02:06 | 48.32136 | -100.18667 | 36694 ft | 533 kts | 37° |
| 2026-04-24 02:06 | 48.38240 | -100.12315 | 36692 ft | 533 kts | 37° |
| 2026-04-24 02:07 | 48.44342 | -100.05946 | 36692 ft | 533 kts | 37° |
| 2026-04-24 02:07 | 48.50598 | -99.99894 | 36693 ft | 536 kts | 27° |
| 2026-04-24 02:08 | 48.57362 | -99.95259 | 36689 ft | 538 kts | 24° |
| 2026-04-24 02:08 | 48.64270 | -99.90839 | 36686 ft | 539 kts | 24° |
| 2026-04-24 02:09 | 48.71180 | -99.86456 | 36677 ft | 538 kts | 24° |
| 2026-04-24 02:09 | 48.78085 | -99.82039 | 36669 ft | 537 kts | 24° |
| 2026-04-24 02:10 | 48.84967 | -99.77604 | 36658 ft | 537 kts | 24° |
| 2026-04-24 02:10 | 48.91847 | -99.73152 | 36659 ft | 537 kts | 24° |
| 2026-04-24 02:11 | 48.98718 | -99.68692 | 36640 ft | 536 kts | 24° |
| 2026-04-24 02:11 | 49.05557 | -99.64242 | 36639 ft | 538 kts | 24° |
| 2026-04-24 02:12 | 49.12450 | -99.59743 | 36636 ft | 539 kts | 24° |
| 2026-04-24 02:12 | 49.19338 | -99.55233 | 36628 ft | 537 kts | 24° |
| 2026-04-24 02:13 | 49.26206 | -99.50723 | 36614 ft | 537 kts | 24° |
| 2026-04-24 02:13 | 49.33068 | -99.46203 | 36608 ft | 537 kts | 24° |
| 2026-04-24 02:14 | 49.39885 | -99.41700 | 36607 ft | 536 kts | 24° |
| 2026-04-24 02:14 | 49.46769 | -99.37137 | 36595 ft | 536 kts | 24° |
| 2026-04-24 02:15 | 49.53570 | -99.32616 | 36575 ft | 536 kts | 24° |
| 2026-04-24 02:15 | 49.60414 | -99.28052 | 36567 ft | 536 kts | 24° |
| 2026-04-24 02:16 | 49.67246 | -99.23484 | 36563 ft | 534 kts | 25° |
| 2026-04-24 02:16 | 49.74065 | -99.18908 | 36545 ft | 533 kts | 25° |
| 2026-04-24 02:17 | 49.80870 | -99.14329 | 36536 ft | 533 kts | 25° |
| 2026-04-24 02:17 | 49.87669 | -99.09739 | 36523 ft | 533 kts | 25° |
| 2026-04-24 02:18 | 49.94477 | -99.05129 | 36523 ft | 534 kts | 25° |
| 2026-04-24 02:18 | 50.01241 | -99.00535 | 36514 ft | 534 kts | 25° |
| 2026-04-24 02:19 | 50.08053 | -98.95895 | 36500 ft | 534 kts | 25° |
| 2026-04-24 02:19 | 50.14861 | -98.91242 | 36498 ft | 534 kts | 25° |
| 2026-04-24 02:20 | 50.21665 | -98.86577 | 36486 ft | 534 kts | 25° |
| 2026-04-24 02:20 | 50.28470 | -98.81897 | 36474 ft | 534 kts | 25° |
| 2026-04-24 02:21 | 50.35264 | -98.77211 | 36473 ft | 534 kts | 25° |
| 2026-04-24 02:21 | 50.42000 | -98.72355 | 36459 ft | 532 kts | 32° |
| 2026-04-24 02:22 | 50.48320 | -98.66358 | 36442 ft | 530 kts | 34° |
| 2026-04-24 02:22 | 50.54549 | -98.60129 | 36442 ft | 530 kts | 35° |
| 2026-04-24 02:23 | 50.60710 | -98.53896 | 36428 ft | 529 kts | 35° |
| 2026-04-24 02:23 | 50.66900 | -98.47633 | 36413 ft | 528 kts | 35° |
| 2026-04-24 02:24 | 50.73092 | -98.41362 | 36403 ft | 529 kts | 35° |
| 2026-04-24 02:24 | 50.79309 | -98.35052 | 36418 ft | 532 kts | 35° |
| 2026-04-24 02:25 | 50.85531 | -98.28718 | 36402 ft | 532 kts | 36° |
| 2026-04-24 02:25 | 50.91710 | -98.22406 | 36408 ft | 532 kts | 36° |
| 2026-04-24 02:26 | 50.97932 | -98.16029 | 36408 ft | 532 kts | 36° |
| 2026-04-24 02:26 | 51.04149 | -98.09636 | 36416 ft | 532 kts | 36° |
| 2026-04-24 02:27 | 51.10358 | -98.03233 | 36389 ft | 532 kts | 36° |
| 2026-04-24 02:27 | 51.16585 | -97.96787 | 36395 ft | 534 kts | 36° |
| 2026-04-24 02:28 | 51.22775 | -97.90361 | 36392 ft | 534 kts | 36° |
| 2026-04-24 02:28 | 51.29002 | -97.83874 | 36392 ft | 534 kts | 36° |
| 2026-04-24 02:29 | 51.35219 | -97.77378 | 36392 ft | 533 kts | 37° |
| 2026-04-24 02:29 | 51.41423 | -97.70872 | 36386 ft | 533 kts | 37° |
| 2026-04-24 02:30 | 51.47636 | -97.64333 | 36391 ft | 536 kts | 37° |
| 2026-04-24 02:30 | 51.53908 | -97.57709 | 36392 ft | 540 kts | 37° |
| 2026-04-24 02:31 | 51.60154 | -97.51097 | 36394 ft | 540 kts | 37° |
| 2026-04-24 02:31 | 51.66431 | -97.44431 | 36395 ft | 540 kts | 37° |
| 2026-04-24 02:32 | 51.72691 | -97.37757 | 36411 ft | 540 kts | 37° |
| 2026-04-24 02:32 | 51.78953 | -97.31058 | 36411 ft | 540 kts | 37° |
| 2026-04-24 02:33 | 51.85228 | -97.24322 | 36415 ft | 541 kts | 38° |
| 2026-04-24 02:33 | 51.91462 | -97.17606 | 36425 ft | 541 kts | 38° |
| 2026-04-24 02:34 | 51.97721 | -97.10841 | 36432 ft | 541 kts | 38° |
| 2026-04-24 02:34 | 52.03975 | -97.04058 | 36440 ft | 541 kts | 38° |
| 2026-04-24 02:35 | 52.10237 | -96.97244 | 36435 ft | 540 kts | 38° |
| 2026-04-24 02:35 | 52.16480 | -96.90428 | 36435 ft | 539 kts | 38° |
| 2026-04-24 02:36 | 52.22719 | -96.83591 | 36448 ft | 543 kts | 38° |
| 2026-04-24 02:36 | 52.28994 | -96.76688 | 36439 ft | 544 kts | 38° |
| 2026-04-24 02:37 | 52.34988 | -96.69364 | 36463 ft | 537 kts | 47° |
| 2026-04-24 02:37 | 52.40400 | -96.60996 | 36456 ft | 534 kts | 49° |
| 2026-04-24 02:38 | 52.45694 | -96.52463 | 36473 ft | 534 kts | 50° |
| 2026-04-24 02:38 | 52.50972 | -96.43887 | 36462 ft | 536 kts | 51° |
| 2026-04-24 02:39 | 52.56311 | -96.35196 | 36493 ft | 543 kts | 51° |
| 2026-04-24 02:39 | 52.61680 | -96.26459 | 36495 ft | 542 kts | 50° |
| 2026-04-24 02:40 | 52.67033 | -96.17728 | 36517 ft | 541 kts | 50° |
| 2026-04-24 02:40 | 52.72373 | -96.08982 | 36517 ft | 541 kts | 51° |
| 2026-04-24 02:41 | 52.77700 | -96.00220 | 36524 ft | 542 kts | 51° |
| 2026-04-24 02:41 | 52.83045 | -95.91387 | 36555 ft | 550 kts | 51° |
| 2026-04-24 02:42 | 52.88453 | -95.82429 | 36549 ft | 549 kts | 51° |
| 2026-04-24 02:42 | 52.93839 | -95.73479 | 36555 ft | 549 kts | 51° |
| 2026-04-24 02:43 | 52.98313 | -95.66016 | 36587 ft | 548 kts | 51° |
| 2026-04-24 02:43 | 53.03680 | -95.57028 | 36554 ft | 548 kts | 51° |
| 2026-04-24 02:44 | 53.09062 | -95.47976 | 36602 ft | 551 kts | 51° |
| 2026-04-24 02:44 | 53.14457 | -95.38875 | 36610 ft | 551 kts | 51° |
| 2026-04-24 02:45 | 53.19830 | -95.29778 | 36623 ft | 550 kts | 51° |
| 2026-04-24 02:45 | 53.25188 | -95.20671 | 36631 ft | 550 kts | 51° |
| 2026-04-24 02:46 | 53.30541 | -95.11536 | 36600 ft | 550 kts | 51° |
| 2026-04-24 02:46 | 53.35849 | -95.02443 | 36654 ft | 550 kts | 51° |
| 2026-04-24 02:47 | 53.41188 | -94.93261 | 36657 ft | 550 kts | 52° |
| 2026-04-24 02:47 | 53.46517 | -94.84063 | 36666 ft | 550 kts | 52° |
| 2026-04-24 02:48 | 53.51844 | -94.74834 | 36663 ft | 550 kts | 52° |
| 2026-04-24 02:48 | 53.57161 | -94.65586 | 36681 ft | 550 kts | 52° |
| 2026-04-24 02:49 | 53.62469 | -94.56317 | 36679 ft | 550 kts | 52° |
| 2026-04-24 02:49 | 53.67772 | -94.47021 | 36681 ft | 549 kts | 52° |
| 2026-04-24 02:50 | 53.73068 | -94.37700 | 36682 ft | 550 kts | 52° |
| 2026-04-24 02:50 | 53.78318 | -94.28426 | 36714 ft | 549 kts | 52° |
| 2026-04-24 02:51 | 53.83597 | -94.19064 | 36705 ft | 549 kts | 52° |
| 2026-04-24 02:51 | 53.88866 | -94.09681 | 36739 ft | 550 kts | 52° |
| 2026-04-24 02:52 | 53.94134 | -94.00265 | 36752 ft | 550 kts | 51° |
| 2026-04-24 02:52 | 53.99394 | -93.90825 | 36771 ft | 550 kts | 51° |
| 2026-04-24 02:53 | 54.04659 | -93.81343 | 36776 ft | 550 kts | 52° |
| 2026-04-24 02:53 | 54.09910 | -93.71847 | 36798 ft | 550 kts | 52° |
| 2026-04-24 02:54 | 54.15131 | -93.62367 | 36795 ft | 551 kts | 51° |
| 2026-04-24 02:54 | 54.20384 | -93.52790 | 36826 ft | 552 kts | 51° |
| 2026-04-24 02:55 | 54.25629 | -93.43190 | 36820 ft | 553 kts | 51° |
| 2026-04-24 02:55 | 54.30888 | -93.33526 | 36842 ft | 553 kts | 51° |
| 2026-04-24 02:56 | 54.36094 | -93.23923 | 36842 ft | 553 kts | 51° |
| 2026-04-24 02:56 | 54.41322 | -93.14235 | 36864 ft | 553 kts | 50° |
| 2026-04-24 02:57 | 54.46544 | -93.04524 | 36871 ft | 553 kts | 50° |
| 2026-04-24 02:57 | 54.51770 | -92.94766 | 36887 ft | 554 kts | 50° |
| 2026-04-24 02:58 | 54.56985 | -92.84988 | 36886 ft | 554 kts | 50° |
| 2026-04-24 02:58 | 54.62192 | -92.75185 | 36905 ft | 554 kts | 50° |
| 2026-04-24 02:59 | 54.67355 | -92.65424 | 36901 ft | 554 kts | 49° |
| 2026-04-24 02:59 | 54.72545 | -92.55574 | 36922 ft | 553 kts | 49° |
| 2026-04-24 03:00 | 54.77721 | -92.45708 | 36927 ft | 554 kts | 49° |
| 2026-04-24 03:00 | 54.82897 | -92.35805 | 36941 ft | 554 kts | 49° |
| 2026-04-24 03:01 | 54.88059 | -92.25885 | 36947 ft | 554 kts | 49° |
| 2026-04-24 03:01 | 54.93223 | -92.15920 | 36947 ft | 553 kts | 49° |
| 2026-04-24 03:02 | 54.98334 | -92.06018 | 36975 ft | 552 kts | 49° |
| 2026-04-24 03:02 | 55.03461 | -91.96043 | 36987 ft | 552 kts | 49° |
| 2026-04-24 03:03 | 55.08576 | -91.86048 | 37002 ft | 552 kts | 49° |
| 2026-04-24 03:03 | 55.13685 | -91.76025 | 37001 ft | 552 kts | 49° |
| 2026-04-24 03:04 | 55.18789 | -91.65969 | 37025 ft | 552 kts | 49° |
| 2026-04-24 03:04 | 55.23877 | -91.55907 | 37027 ft | 551 kts | 48° |
| 2026-04-24 03:05 | 55.28947 | -91.45832 | 37055 ft | 550 kts | 48° |
| 2026-04-24 03:05 | 55.33964 | -91.35822 | 37052 ft | 549 kts | 48° |
| 2026-04-24 03:06 | 55.39006 | -91.25723 | 37081 ft | 549 kts | 48° |
| 2026-04-24 03:06 | 55.44034 | -91.15607 | 37080 ft | 549 kts | 49° |
| 2026-04-24 03:07 | 55.49056 | -91.05462 | 37101 ft | 547 kts | 48° |
| 2026-04-24 03:07 | 55.54035 | -90.95360 | 37109 ft | 543 kts | 47° |
| 2026-04-24 03:08 | 55.61413 | -90.80312 | 37133 ft | 541 kts | 48° |
| 2026-04-24 03:09 | 55.66333 | -90.70227 | 37134 ft | 541 kts | 48° |
| 2026-04-24 03:09 | 55.71243 | -90.60118 | 37153 ft | 541 kts | 48° |
| 2026-04-24 03:10 | 55.76147 | -90.49980 | 37167 ft | 539 kts | 47° |
| 2026-04-24 03:10 | 55.81021 | -90.39859 | 37180 ft | 537 kts | 47° |
| 2026-04-24 03:11 | 55.85875 | -90.29739 | 37180 ft | 537 kts | 48° |
| 2026-04-24 03:11 | 55.90685 | -90.19670 | 37212 ft | 537 kts | 48° |
| 2026-04-24 03:12 | 55.95518 | -90.09509 | 37208 ft | 537 kts | 48° |
| 2026-04-24 03:12 | 56.00347 | -89.99315 | 37236 ft | 537 kts | 48° |
| 2026-04-24 03:13 | 56.05214 | -89.89232 | 37238 ft | 534 kts | 46° |
| 2026-04-24 03:13 | 56.10108 | -89.79253 | 37253 ft | 533 kts | 46° |
| 2026-04-24 03:14 | 56.14988 | -89.69239 | 37266 ft | 533 kts | 46° |
| 2026-04-24 03:14 | 56.19853 | -89.59173 | 37248 ft | 533 kts | 47° |
| 2026-04-24 03:15 | 56.24700 | -89.49084 | 37278 ft | 533 kts | 47° |
| 2026-04-24 03:15 | 56.29548 | -89.38949 | 37259 ft | 533 kts | 47° |
| 2026-04-24 03:16 | 56.34346 | -89.28875 | 37290 ft | 532 kts | 47° |
| 2026-04-24 03:16 | 56.39166 | -89.18716 | 37285 ft | 532 kts | 47° |
| 2026-04-24 03:17 | 56.43969 | -89.08551 | 37297 ft | 532 kts | 47° |
| 2026-04-24 03:17 | 56.48770 | -88.98345 | 37302 ft | 532 kts | 47° |
| 2026-04-24 03:18 | 56.53533 | -88.88179 | 37312 ft | 532 kts | 47° |
| 2026-04-24 03:18 | 56.58299 | -88.77964 | 37324 ft | 530 kts | 47° |
| 2026-04-24 03:19 | 56.63044 | -88.67744 | 37318 ft | 527 kts | 47° |
| 2026-04-24 03:19 | 56.67761 | -88.57541 | 37325 ft | 527 kts | 47° |
| 2026-04-24 03:20 | 56.72480 | -88.47295 | 37323 ft | 527 kts | 47° |
| 2026-04-24 03:20 | 56.77155 | -88.37097 | 37330 ft | 527 kts | 47° |
| 2026-04-24 03:21 | 56.81857 | -88.26800 | 37334 ft | 527 kts | 47° |
| 2026-04-24 03:21 | 56.86536 | -88.16503 | 37343 ft | 523 kts | 47° |
| 2026-04-24 03:22 | 56.91139 | -88.06332 | 37349 ft | 520 kts | 47° |
| 2026-04-24 03:22 | 56.95760 | -87.96082 | 37357 ft | 520 kts | 47° |
| 2026-04-24 03:23 | 57.00340 | -87.85879 | 37363 ft | 520 kts | 47° |
| 2026-04-24 03:23 | 57.04946 | -87.75571 | 37371 ft | 521 kts | 47° |
| 2026-04-24 03:24 | 57.09520 | -87.65293 | 37383 ft | 521 kts | 47° |
| 2026-04-24 03:24 | 57.14071 | -87.55017 | 37381 ft | 517 kts | 47° |
| 2026-04-24 03:25 | 57.18602 | -87.44742 | 37381 ft | 516 kts | 47° |
| 2026-04-24 03:25 | 57.23128 | -87.34440 | 37387 ft | 516 kts | 47° |
| 2026-04-24 03:26 | 57.27622 | -87.24167 | 37395 ft | 516 kts | 47° |
| 2026-04-24 03:26 | 57.32136 | -87.13800 | 37397 ft | 516 kts | 48° |
| 2026-04-24 03:27 | 57.36612 | -87.03478 | 37407 ft | 515 kts | 48° |
| 2026-04-24 03:27 | 57.41075 | -86.93137 | 37405 ft | 513 kts | 48° |
| 2026-04-24 03:28 | 57.45516 | -86.82801 | 37416 ft | 512 kts | 48° |
| 2026-04-24 03:28 | 57.49960 | -86.72419 | 37416 ft | 512 kts | 48° |
| 2026-04-24 03:29 | 57.54377 | -86.62055 | 37419 ft | 512 kts | 48° |
| 2026-04-24 03:29 | 57.58768 | -86.51706 | 37430 ft | 512 kts | 48° |
| 2026-04-24 03:30 | 57.63194 | -86.41228 | 37427 ft | 512 kts | 49° |
| 2026-04-24 03:30 | 57.66840 | -86.32560 | 37438 ft | 511 kts | 49° |
| 2026-04-24 03:31 | 57.71227 | -86.22087 | 37440 ft | 510 kts | 49° |
| 2026-04-24 03:31 | 57.75580 | -86.11654 | 37438 ft | 509 kts | 49° |
| 2026-04-24 03:32 | 57.79922 | -86.01203 | 37446 ft | 510 kts | 49° |
| 2026-04-24 03:32 | 57.84274 | -85.90680 | 37446 ft | 510 kts | 49° |
| 2026-04-24 03:33 | 57.88605 | -85.80162 | 37459 ft | 510 kts | 49° |
| 2026-04-24 03:33 | 57.92936 | -85.69594 | 37455 ft | 509 kts | 49° |
| 2026-04-24 03:34 | 57.97244 | -85.59036 | 37463 ft | 509 kts | 49° |
| 2026-04-24 03:34 | 58.01557 | -85.48420 | 37465 ft | 508 kts | 49° |
| 2026-04-24 03:35 | 58.05835 | -85.37846 | 37462 ft | 508 kts | 49° |
| 2026-04-24 03:35 | 58.10128 | -85.27186 | 37473 ft | 509 kts | 50° |
| 2026-04-24 03:36 | 58.14396 | -85.16540 | 37474 ft | 509 kts | 50° |
| 2026-04-24 03:36 | 58.18655 | -85.05867 | 37484 ft | 510 kts | 49° |
| 2026-04-24 03:37 | 58.22939 | -84.95082 | 37480 ft | 509 kts | 49° |
| 2026-04-24 03:37 | 58.27166 | -84.84394 | 37487 ft | 509 kts | 49° |
| 2026-04-24 03:38 | 58.31409 | -84.73620 | 37490 ft | 509 kts | 50° |
| 2026-04-24 03:38 | 58.35640 | -84.62826 | 37490 ft | 509 kts | 50° |
| 2026-04-24 03:39 | 58.39875 | -84.51971 | 37514 ft | 509 kts | 50° |
| 2026-04-24 03:39 | 58.44079 | -84.41149 | 37512 ft | 509 kts | 50° |
| 2026-04-24 03:40 | 58.48274 | -84.30297 | 37504 ft | 507 kts | 49° |
| 2026-04-24 03:40 | 58.52447 | -84.19453 | 37505 ft | 506 kts | 50° |
| 2026-04-24 03:41 | 58.56635 | -84.08522 | 37509 ft | 506 kts | 50° |
| 2026-04-24 03:41 | 58.60787 | -83.97636 | 37514 ft | 506 kts | 50° |
| 2026-04-24 03:42 | 58.64915 | -83.86762 | 37514 ft | 506 kts | 50° |
| 2026-04-24 03:42 | 58.69051 | -83.75814 | 37519 ft | 507 kts | 50° |
| 2026-04-24 03:43 | 58.73193 | -83.64799 | 37523 ft | 506 kts | 50° |
| 2026-04-24 03:43 | 58.77275 | -83.53893 | 37521 ft | 504 kts | 50° |
| 2026-04-24 03:44 | 58.81377 | -83.42887 | 37521 ft | 503 kts | 50° |
| 2026-04-24 03:44 | 58.85442 | -83.31930 | 37526 ft | 503 kts | 50° |
| 2026-04-24 03:45 | 58.89525 | -83.20874 | 37522 ft | 505 kts | 50° |
| 2026-04-24 03:45 | 58.93582 | -83.09833 | 37529 ft | 505 kts | 50° |
| 2026-04-24 03:46 | 58.97636 | -82.98750 | 37539 ft | 505 kts | 50° |
| 2026-04-24 03:46 | 59.01686 | -82.87623 | 37535 ft | 505 kts | 50° |
| 2026-04-24 03:47 | 59.05745 | -82.76421 | 37531 ft | 505 kts | 50° |
| 2026-04-24 03:47 | 59.09776 | -82.65245 | 37544 ft | 505 kts | 50° |
| 2026-04-24 03:48 | 59.13809 | -82.54009 | 37545 ft | 506 kts | 51° |
| 2026-04-24 03:48 | 59.17819 | -82.42783 | 37548 ft | 506 kts | 51° |
| 2026-04-24 03:49 | 59.21838 | -82.31479 | 37553 ft | 507 kts | 51° |
| 2026-04-24 03:49 | 59.25828 | -82.20199 | 37554 ft | 504 kts | 51° |
| 2026-04-24 03:50 | 59.29795 | -82.08932 | 37551 ft | 503 kts | 51° |
| 2026-04-24 03:50 | 59.33757 | -81.97626 | 37558 ft | 503 kts | 51° |
| 2026-04-24 03:51 | 59.37704 | -81.86312 | 37567 ft | 503 kts | 51° |
| 2026-04-24 03:51 | 59.41632 | -81.74997 | 37564 ft | 504 kts | 51° |
| 2026-04-24 03:52 | 59.45572 | -81.63590 | 37569 ft | 504 kts | 51° |
| 2026-04-24 03:52 | 59.49511 | -81.52130 | 37577 ft | 503 kts | 51° |
| 2026-04-24 03:53 | 59.53372 | -81.40832 | 37576 ft | 497 kts | 52° |
| 2026-04-24 03:53 | 59.57236 | -81.29481 | 37585 ft | 496 kts | 52° |
| 2026-04-24 03:54 | 59.61065 | -81.18185 | 37587 ft | 496 kts | 52° |
| 2026-04-24 03:54 | 59.64890 | -81.06844 | 37595 ft | 497 kts | 52° |
| 2026-04-24 03:55 | 59.68716 | -80.95439 | 37594 ft | 497 kts | 52° |
| 2026-04-24 03:55 | 59.72543 | -80.83978 | 37594 ft | 497 kts | 52° |
| 2026-04-24 03:56 | 59.76323 | -80.72600 | 37602 ft | 495 kts | 52° |
| 2026-04-24 03:56 | 59.80104 | -80.61161 | 37603 ft | 493 kts | 52° |
| 2026-04-24 03:57 | 59.83836 | -80.49819 | 37612 ft | 493 kts | 52° |
| 2026-04-24 03:57 | 59.87594 | -80.38351 | 37605 ft | 495 kts | 53° |
| 2026-04-24 03:58 | 59.91325 | -80.26900 | 37605 ft | 495 kts | 53° |
| 2026-04-24 03:58 | 59.95060 | -80.15380 | 37613 ft | 495 kts | 53° |
| 2026-04-24 03:59 | 59.98789 | -80.03823 | 37613 ft | 495 kts | 53° |
| 2026-04-24 03:59 | 60.02615 | -79.92346 | 37616 ft | 492 kts | 50° |
| 2026-04-24 04:00 | 60.06692 | -79.81454 | 37615 ft | 491 kts | 49° |
| 2026-04-24 04:00 | 60.10819 | -79.70506 | 37619 ft | 494 kts | 50° |
| 2026-04-24 04:01 | 60.14922 | -79.59371 | 37623 ft | 495 kts | 50° |
| 2026-04-24 04:01 | 60.18968 | -79.48218 | 37618 ft | 496 kts | 50° |
| 2026-04-24 04:02 | 60.23039 | -79.36918 | 37626 ft | 496 kts | 51° |
| 2026-04-24 04:02 | 60.27077 | -79.25664 | 37626 ft | 496 kts | 51° |
| 2026-04-24 04:03 | 60.31104 | -79.14394 | 37649 ft | 498 kts | 52° |
| 2026-04-24 04:03 | 60.35155 | -79.03010 | 37627 ft | 502 kts | 52° |
| 2026-04-24 04:04 | 60.39208 | -78.91555 | 37630 ft | 503 kts | 52° |
| 2026-04-24 04:04 | 60.43260 | -78.80045 | 37629 ft | 503 kts | 52° |
| 2026-04-24 04:05 | 60.47309 | -78.68488 | 37627 ft | 503 kts | 52° |
| 2026-04-24 04:05 | 60.51358 | -78.56876 | 37626 ft | 503 kts | 52° |
| 2026-04-24 04:06 | 60.55393 | -78.45247 | 37637 ft | 503 kts | 52° |
| 2026-04-24 04:06 | 60.59412 | -78.33609 | 37628 ft | 504 kts | 54° |
| 2026-04-24 04:07 | 60.63433 | -78.21899 | 37630 ft | 504 kts | 54° |
| 2026-04-24 04:07 | 60.67458 | -78.10119 | 37629 ft | 504 kts | 54° |
| 2026-04-24 04:08 | 60.71438 | -77.98413 | 37629 ft | 504 kts | 54° |
| 2026-04-24 04:08 | 60.75421 | -77.86640 | 37632 ft | 504 kts | 54° |
| 2026-04-24 04:09 | 60.79416 | -77.74770 | 37641 ft | 505 kts | 55° |
| 2026-04-24 04:09 | 60.83401 | -77.62869 | 37634 ft | 507 kts | 55° |
| 2026-04-24 04:10 | 60.87372 | -77.50955 | 37636 ft | 509 kts | 56° |
| 2026-04-24 04:10 | 60.91363 | -77.38915 | 37640 ft | 512 kts | 56° |
| 2026-04-24 04:11 | 60.97347 | -77.20743 | 37647 ft | 512 kts | 56° |
| 2026-04-24 04:11 | 61.01324 | -77.08584 | 37648 ft | 512 kts | 56° |
| 2026-04-24 04:12 | 61.05310 | -76.96335 | 37647 ft | 512 kts | 56° |
| 2026-04-24 04:12 | 61.09260 | -76.84134 | 37654 ft | 512 kts | 56° |
| 2026-04-24 04:13 | 61.13207 | -76.71874 | 37656 ft | 512 kts | 56° |
| 2026-04-24 04:13 | 61.17145 | -76.59580 | 37656 ft | 515 kts | 57° |
| 2026-04-24 04:14 | 61.21083 | -76.47218 | 37656 ft | 516 kts | 57° |
| 2026-04-24 04:14 | 61.25043 | -76.34725 | 37669 ft | 516 kts | 57° |
| 2026-04-24 04:15 | 61.28962 | -76.22290 | 37668 ft | 518 kts | 57° |
| 2026-04-24 04:15 | 61.32909 | -76.09699 | 37664 ft | 518 kts | 58° |
| 2026-04-24 04:16 | 61.36843 | -75.97077 | 37673 ft | 518 kts | 58° |
| 2026-04-24 04:16 | 61.40743 | -75.84498 | 37671 ft | 518 kts | 58° |
| 2026-04-24 04:17 | 61.44007 | -75.73921 | 37677 ft | 520 kts | 59° |
| 2026-04-24 04:17 | 61.48551 | -75.59108 | 37681 ft | 522 kts | 59° |
| 2026-04-24 04:18 | 61.52479 | -75.46222 | 37686 ft | 524 kts | 59° |
| 2026-04-24 04:18 | 61.55735 | -75.35491 | 37685 ft | 524 kts | 59° |
| 2026-04-24 04:19 | 61.59618 | -75.22624 | 37686 ft | 524 kts | 59° |
| 2026-04-24 04:19 | 61.63510 | -75.09656 | 37692 ft | 523 kts | 60° |
| 2026-04-24 04:20 | 61.67394 | -74.96640 | 37695 ft | 524 kts | 60° |
| 2026-04-24 04:20 | 61.71244 | -74.83664 | 37702 ft | 524 kts | 60° |
| 2026-04-24 04:21 | 61.75089 | -74.70629 | 37696 ft | 525 kts | 60° |
| 2026-04-24 04:21 | 61.78956 | -74.57449 | 37701 ft | 525 kts | 60° |
| 2026-04-24 04:22 | 61.82771 | -74.44369 | 37703 ft | 525 kts | 60° |
| 2026-04-24 04:22 | 61.86600 | -74.31164 | 37697 ft | 525 kts | 60° |
| 2026-04-24 04:23 | 61.90421 | -74.17907 | 37701 ft | 525 kts | 60° |
| 2026-04-24 04:23 | 61.94216 | -74.04670 | 37699 ft | 527 kts | 61° |
| 2026-04-24 04:24 | 61.98020 | -73.91312 | 37697 ft | 528 kts | 62° |
| 2026-04-24 04:24 | 62.01803 | -73.77956 | 37696 ft | 529 kts | 62° |
| 2026-04-24 04:25 | 62.05584 | -73.64532 | 37683 ft | 529 kts | 62° |
| 2026-04-24 04:25 | 62.09371 | -73.51005 | 37683 ft | 529 kts | 62° |
| 2026-04-24 04:26 | 62.13113 | -73.37556 | 37683 ft | 529 kts | 62° |
| 2026-04-24 04:26 | 62.16877 | -73.23948 | 37659 ft | 530 kts | 63° |
| 2026-04-24 04:27 | 62.20624 | -73.10319 | 37661 ft | 531 kts | 63° |
| 2026-04-24 04:27 | 62.24342 | -72.96713 | 37655 ft | 531 kts | 63° |
| 2026-04-24 04:28 | 62.28067 | -72.82997 | 37644 ft | 531 kts | 64° |
| 2026-04-24 04:28 | 62.31767 | -72.69291 | 37638 ft | 531 kts | 64° |
| 2026-04-24 04:29 | 62.35466 | -72.55503 | 37643 ft | 531 kts | 64° |
| 2026-04-24 04:29 | 62.39137 | -72.41734 | 37633 ft | 533 kts | 64° |
| 2026-04-24 04:30 | 62.42827 | -72.27811 | 37631 ft | 533 kts | 64° |
| 2026-04-24 04:30 | 62.46484 | -72.13928 | 37632 ft | 533 kts | 64° |
| 2026-04-24 04:31 | 62.50150 | -71.99924 | 37624 ft | 533 kts | 65° |
| 2026-04-24 04:31 | 62.53768 | -71.86013 | 37624 ft | 533 kts | 65° |
| 2026-04-24 04:32 | 62.57409 | -71.71923 | 37616 ft | 534 kts | 65° |
| 2026-04-24 04:32 | 62.61021 | -71.57856 | 37616 ft | 535 kts | 65° |
| 2026-04-24 04:33 | 62.64614 | -71.43776 | 37613 ft | 535 kts | 65° |
| 2026-04-24 04:33 | 62.68217 | -71.29571 | 37610 ft | 535 kts | 65° |
| 2026-04-24 04:34 | 62.71783 | -71.15418 | 37610 ft | 534 kts | 65° |
| 2026-04-24 04:34 | 62.75354 | -71.01154 | 37603 ft | 535 kts | 65° |
| 2026-04-24 04:35 | 62.78900 | -70.86898 | 37605 ft | 536 kts | 66° |
| 2026-04-24 04:35 | 62.82441 | -70.72568 | 37606 ft | 536 kts | 66° |
| 2026-04-24 04:36 | 62.85989 | -70.58119 | 37612 ft | 536 kts | 66° |
| 2026-04-24 04:36 | 62.89499 | -70.43729 | 37598 ft | 536 kts | 66° |
| 2026-04-24 04:37 | 62.92994 | -70.29307 | 37610 ft | 536 kts | 66° |
| 2026-04-24 04:37 | 62.96489 | -70.14787 | 37609 ft | 536 kts | 66° |
| 2026-04-24 04:38 | 62.99943 | -70.00340 | 37597 ft | 535 kts | 67° |
| 2026-04-24 04:38 | 63.03488 | -69.85867 | 37596 ft | 536 kts | 65° |
| 2026-04-24 04:39 | 63.07088 | -69.71553 | 37594 ft | 536 kts | 65° |
| 2026-04-24 04:39 | 63.10666 | -69.57203 | 37596 ft | 536 kts | 65° |
| 2026-04-24 04:40 | 63.14230 | -69.42727 | 37605 ft | 535 kts | 66° |
| 2026-04-24 04:40 | 63.17768 | -69.28222 | 37605 ft | 535 kts | 66° |
| 2026-04-24 04:41 | 63.21298 | -69.13649 | 37613 ft | 535 kts | 66° |
| 2026-04-24 04:41 | 63.24780 | -68.99187 | 37610 ft | 531 kts | 66° |
| 2026-04-24 04:42 | 63.28222 | -68.84803 | 37613 ft | 527 kts | 67° |
| 2026-04-24 04:42 | 63.31656 | -68.70344 | 37613 ft | 527 kts | 67° |
| 2026-04-24 04:43 | 63.35052 | -68.55945 | 37610 ft | 527 kts | 67° |
| 2026-04-24 04:43 | 63.38456 | -68.41410 | 37621 ft | 530 kts | 66° |
| 2026-04-24 04:44 | 63.41880 | -68.26710 | 37623 ft | 533 kts | 66° |
| 2026-04-24 04:44 | 63.45282 | -68.12012 | 37624 ft | 534 kts | 66° |
| 2026-04-24 04:45 | 63.48660 | -67.97320 | 37625 ft | 530 kts | 67° |
| 2026-04-24 04:45 | 63.51981 | -67.82778 | 37620 ft | 523 kts | 67° |
| 2026-04-24 04:46 | 63.55289 | -67.68177 | 37626 ft | 522 kts | 67° |
| 2026-04-24 04:46 | 63.58548 | -67.53681 | 37611 ft | 525 kts | 68° |
| 2026-04-24 04:47 | 63.61836 | -67.38968 | 37613 ft | 526 kts | 68° |
| 2026-04-24 04:47 | 63.65098 | -67.24278 | 37615 ft | 526 kts | 68° |
| 2026-04-24 04:48 | 63.68360 | -67.09488 | 37638 ft | 525 kts | 68° |
| 2026-04-24 04:48 | 63.71589 | -66.94746 | 37594 ft | 525 kts | 68° |
| 2026-04-24 04:49 | 63.74800 | -66.79992 | 37646 ft | 518 kts | 68° |
| 2026-04-24 04:49 | 63.77956 | -66.65373 | 37637 ft | 519 kts | 68° |
| 2026-04-24 04:50 | 63.81099 | -66.50701 | 37638 ft | 520 kts | 69° |
| 2026-04-24 04:50 | 63.84252 | -66.35897 | 37637 ft | 520 kts | 69° |
| 2026-04-24 04:51 | 63.87371 | -66.21147 | 37641 ft | 520 kts | 69° |
| 2026-04-24 04:51 | 63.90472 | -66.06375 | 37650 ft | 520 kts | 69° |
| 2026-04-24 04:52 | 63.93580 | -65.91473 | 37651 ft | 519 kts | 69° |
| 2026-04-24 04:52 | 63.96644 | -65.76670 | 37647 ft | 520 kts | 69° |
| 2026-04-24 04:53 | 63.99697 | -65.61823 | 37665 ft | 517 kts | 69° |
| 2026-04-24 04:53 | 64.02739 | -65.46914 | 37665 ft | 517 kts | 69° |
| 2026-04-24 04:54 | 64.05752 | -65.32041 | 37667 ft | 517 kts | 69° |
| 2026-04-24 04:54 | 64.08746 | -65.17146 | 37667 ft | 517 kts | 69° |
| 2026-04-24 04:55 | 64.11741 | -65.02152 | 37669 ft | 517 kts | 70° |
| 2026-04-24 04:55 | 64.14704 | -64.87204 | 37662 ft | 518 kts | 70° |
| 2026-04-24 04:56 | 64.17680 | -64.72085 | 37662 ft | 518 kts | 70° |
| 2026-04-24 04:56 | 64.20616 | -64.57055 | 37662 ft | 518 kts | 70° |
| 2026-04-24 04:57 | 64.23554 | -64.41905 | 37657 ft | 518 kts | 70° |
| 2026-04-24 04:57 | 64.26468 | -64.26767 | 37651 ft | 518 kts | 70° |
| 2026-04-24 04:58 | 64.29363 | -64.11610 | 37655 ft | 518 kts | 71° |
| 2026-04-24 04:58 | 64.32261 | -63.96316 | 37651 ft | 520 kts | 71° |
| 2026-04-24 04:59 | 64.35139 | -63.81017 | 37650 ft | 520 kts | 71° |
| 2026-04-24 04:59 | 64.37989 | -63.65754 | 37649 ft | 520 kts | 71° |
| 2026-04-24 05:00 | 64.40848 | -63.50324 | 37637 ft | 520 kts | 71° |
| 2026-04-24 05:00 | 64.43674 | -63.34967 | 37645 ft | 517 kts | 71° |
| 2026-04-24 05:01 | 64.46464 | -63.19672 | 37644 ft | 516 kts | 71° |
| 2026-04-24 05:01 | 64.49239 | -63.04335 | 37791 ft | 518 kts | 71° |
| 2026-04-24 05:02 | 64.50619 | -62.96688 | 38160 ft | 515 kts | 71° |
| 2026-04-24 05:02 | 64.52043 | -62.89047 | 38534 ft | 513 kts | 70° |
| 2026-04-24 05:02 | 64.53491 | -62.81466 | 38851 ft | 511 kts | 70° |
| 2026-04-24 05:02 | 64.54927 | -62.73989 | 39145 ft | 510 kts | 70° |
| 2026-04-24 05:03 | 64.56382 | -62.66387 | 39398 ft | 509 kts | 70° |
| 2026-04-24 05:03 | 64.57803 | -62.58911 | 39564 ft | 509 kts | 70° |
| 2026-04-24 05:03 | 64.60644 | -62.43774 | 39627 ft | 512 kts | 70° |
| 2026-04-24 05:04 | 64.63472 | -62.28544 | 39626 ft | 510 kts | 70° |
| 2026-04-24 05:04 | 64.66270 | -62.13352 | 39625 ft | 510 kts | 70° |
| 2026-04-24 05:05 | 64.69058 | -61.98090 | 39615 ft | 510 kts | 70° |
| 2026-04-24 05:05 | 64.71817 | -61.82880 | 39615 ft | 510 kts | 70° |
| 2026-04-24 05:06 | 64.74569 | -61.67588 | 39617 ft | 510 kts | 70° |
| 2026-04-24 05:06 | 64.77304 | -61.52270 | 39603 ft | 509 kts | 70° |
| 2026-04-24 05:07 | 64.79571 | -61.39484 | 39608 ft | 509 kts | 71° |
| 2026-04-24 05:07 | 64.82720 | -61.21585 | 39603 ft | 512 kts | 71° |
| 2026-04-24 05:08 | 64.84970 | -61.08690 | 39592 ft | 511 kts | 70° |
| 2026-04-24 05:08 | 64.87649 | -60.93237 | 39592 ft | 509 kts | 70° |
| 2026-04-24 05:09 | 64.90313 | -60.77735 | 39588 ft | 509 kts | 71° |
| 2026-04-24 05:09 | 64.92945 | -60.62300 | 39582 ft | 509 kts | 71° |
| 2026-04-24 05:10 | 64.95562 | -60.46824 | 39585 ft | 509 kts | 71° |
| 2026-04-24 05:10 | 64.98170 | -60.31277 | 39584 ft | 509 kts | 71° |
| 2026-04-24 05:11 | 65.00770 | -60.15654 | 39579 ft | 508 kts | 71° |
| 2026-04-24 05:11 | 65.03336 | -60.00108 | 39576 ft | 508 kts | 71° |
| 2026-04-24 05:12 | 65.05652 | -59.84329 | 39559 ft | 506 kts | 75° |
| 2026-04-24 05:12 | 65.07650 | -59.68454 | 39573 ft | 503 kts | 76° |
| 2026-04-24 05:13 | 65.10667 | -59.44608 | 39559 ft | 504 kts | 75° |
| 2026-04-24 05:14 | 65.12728 | -59.28602 | 39558 ft | 505 kts | 75° |
| 2026-04-24 05:14 | 65.14769 | -59.12695 | 39547 ft | 506 kts | 75° |
| 2026-04-24 05:15 | 65.16806 | -58.96643 | 39544 ft | 506 kts | 76° |
| 2026-04-24 05:15 | 65.18818 | -58.80617 | 39540 ft | 506 kts | 76° |
| 2026-04-24 05:16 | 65.20805 | -58.64622 | 39520 ft | 505 kts | 76° |
| 2026-04-24 05:16 | 65.22778 | -58.48586 | 39529 ft | 501 kts | 76° |
| 2026-04-24 05:17 | 65.24712 | -58.32684 | 39530 ft | 503 kts | 76° |
| 2026-04-24 05:17 | 65.26646 | -58.16620 | 39509 ft | 504 kts | 76° |
| 2026-04-24 05:18 | 65.28575 | -58.00445 | 39507 ft | 504 kts | 76° |
| 2026-04-24 05:18 | 65.30477 | -57.84328 | 39508 ft | 504 kts | 76° |
| 2026-04-24 05:19 | 65.32354 | -57.68256 | 39492 ft | 504 kts | 77° |
| 2026-04-24 05:19 | 65.34219 | -57.52108 | 39490 ft | 504 kts | 77° |
| 2026-04-24 05:20 | 65.36072 | -57.35906 | 39479 ft | 502 kts | 77° |
| 2026-04-24 05:20 | 65.37901 | -57.19733 | 39478 ft | 502 kts | 77° |
| 2026-04-24 05:21 | 65.39710 | -57.03548 | 39471 ft | 502 kts | 77° |
| 2026-04-24 05:21 | 65.41499 | -56.87373 | 39465 ft | 502 kts | 77° |
| 2026-04-24 05:22 | 65.43272 | -56.71158 | 39450 ft | 502 kts | 77° |
| 2026-04-24 05:22 | 65.45035 | -56.54868 | 39441 ft | 502 kts | 77° |
| 2026-04-24 05:23 | 65.46770 | -56.38652 | 39442 ft | 502 kts | 78° |
| 2026-04-24 05:23 | 65.48496 | -56.22323 | 39422 ft | 503 kts | 78° |
| 2026-04-24 05:24 | 65.50197 | -56.06079 | 39417 ft | 500 kts | 78° |
| 2026-04-24 05:24 | 65.51882 | -55.89764 | 39417 ft | 500 kts | 78° |
| 2026-04-24 05:25 | 65.53540 | -55.73523 | 39404 ft | 500 kts | 78° |
| 2026-04-24 05:25 | 65.55180 | -55.57285 | 39387 ft | 500 kts | 78° |
| 2026-04-24 05:26 | 65.56806 | -55.40979 | 39391 ft | 500 kts | 78° |
| 2026-04-24 05:26 | 65.58412 | -55.24648 | 39364 ft | 500 kts | 78° |
| 2026-04-24 05:27 | 65.60011 | -55.08219 | 39372 ft | 502 kts | 79° |
| 2026-04-24 05:27 | 65.61596 | -54.91750 | 39367 ft | 500 kts | 78° |
| 2026-04-24 05:28 | 65.63141 | -54.75499 | 39349 ft | 496 kts | 79° |
| 2026-04-24 05:28 | 65.64666 | -54.59250 | 39347 ft | 496 kts | 79° |
| 2026-04-24 05:29 | 65.66173 | -54.42964 | 39339 ft | 496 kts | 79° |
| 2026-04-24 05:29 | 65.67668 | -54.26593 | 39344 ft | 496 kts | 79° |
| 2026-04-24 05:30 | 65.69139 | -54.10284 | 39328 ft | 497 kts | 79° |
| 2026-04-24 05:30 | 65.70598 | -53.93911 | 39322 ft | 498 kts | 79° |
| 2026-04-24 05:31 | 65.72044 | -53.77467 | 39320 ft | 498 kts | 79° |
| 2026-04-24 05:31 | 65.73475 | -53.60976 | 39310 ft | 494 kts | 79° |
| 2026-04-24 05:32 | 65.74863 | -53.44750 | 39314 ft | 492 kts | 79° |
| 2026-04-24 05:32 | 65.76242 | -53.28411 | 39314 ft | 492 kts | 80° |
| 2026-04-24 05:33 | 65.77602 | -53.12069 | 39314 ft | 492 kts | 80° |
| 2026-04-24 05:33 | 65.78943 | -52.95728 | 39311 ft | 495 kts | 80° |
| 2026-04-24 05:34 | 65.80940 | -52.70974 | 39302 ft | 496 kts | 80° |
| 2026-04-24 05:34 | 65.82253 | -52.54405 | 39298 ft | 496 kts | 80° |
| 2026-04-24 05:35 | 65.83541 | -52.37901 | 39293 ft | 496 kts | 81° |
| 2026-04-24 05:35 | 65.84809 | -52.21416 | 39296 ft | 496 kts | 81° |
| 2026-04-24 05:36 | 65.86064 | -52.04833 | 39297 ft | 496 kts | 81° |
| 2026-04-24 05:36 | 65.87297 | -51.88303 | 39295 ft | 499 kts | 81° |
| 2026-04-24 05:37 | 65.88530 | -51.71518 | 39287 ft | 500 kts | 81° |
| 2026-04-24 05:37 | 65.89739 | -51.54798 | 39290 ft | 500 kts | 81° |
| 2026-04-24 05:38 | 65.90928 | -51.38092 | 39293 ft | 500 kts | 81° |
| 2026-04-24 05:38 | 65.92098 | -51.21361 | 39294 ft | 499 kts | 82° |
| 2026-04-24 05:39 | 65.93255 | -51.04561 | 39297 ft | 495 kts | 82° |
| 2026-04-24 05:39 | 65.94376 | -50.87992 | 39318 ft | 494 kts | 82° |
| 2026-04-24 05:40 | 65.95486 | -50.71295 | 39320 ft | 497 kts | 82° |
| 2026-04-24 05:40 | 65.96578 | -50.54590 | 39327 ft | 498 kts | 82° |
| 2026-04-24 05:41 | 65.97662 | -50.37733 | 39345 ft | 498 kts | 82° |
| 2026-04-24 05:41 | 65.98722 | -50.20929 | 39344 ft | 497 kts | 82° |
| 2026-04-24 05:42 | 65.99728 | -50.04132 | 39337 ft | 497 kts | 85° |
| 2026-04-24 05:42 | 65.99806 | -49.87241 | 39336 ft | 495 kts | 92° |
| 2026-04-24 05:43 | 65.99531 | -49.70402 | 39318 ft | 490 kts | 94° |
| 2026-04-24 05:43 | 65.99186 | -49.53763 | 39320 ft | 490 kts | 94° |
| 2026-04-24 05:44 | 65.98829 | -49.37017 | 39328 ft | 489 kts | 94° |
| 2026-04-24 05:44 | 65.98468 | -49.20363 | 39325 ft | 489 kts | 94° |
| 2026-04-24 05:45 | 65.98093 | -49.03712 | 39324 ft | 489 kts | 94° |
| 2026-04-24 05:45 | 65.97701 | -48.87048 | 39324 ft | 489 kts | 94° |
| 2026-04-24 05:46 | 65.97290 | -48.70414 | 39321 ft | 487 kts | 95° |
| 2026-04-24 05:46 | 65.96862 | -48.53804 | 39323 ft | 486 kts | 95° |
| 2026-04-24 05:47 | 65.96419 | -48.37315 | 39287 ft | 487 kts | 95° |
| 2026-04-24 05:47 | 65.95952 | -48.20639 | 39279 ft | 489 kts | 95° |
| 2026-04-24 05:48 | 65.95471 | -48.04044 | 39279 ft | 490 kts | 95° |
| 2026-04-24 05:48 | 65.94968 | -47.87352 | 39252 ft | 490 kts | 95° |
| 2026-04-24 05:49 | 65.94450 | -47.70756 | 39237 ft | 489 kts | 95° |
| 2026-04-24 05:49 | 65.93913 | -47.54152 | 39230 ft | 487 kts | 95° |
| 2026-04-24 05:50 | 65.93362 | -47.37642 | 39227 ft | 486 kts | 95° |
| 2026-04-24 05:50 | 65.92794 | -47.21200 | 39233 ft | 486 kts | 95° |
| 2026-04-24 05:51 | 65.92205 | -47.04639 | 39230 ft | 486 kts | 96° |
| 2026-04-24 05:51 | 65.91601 | -46.88168 | 39230 ft | 487 kts | 96° |
| 2026-04-24 05:52 | 65.90977 | -46.71642 | 39231 ft | 490 kts | 96° |
| 2026-04-24 05:52 | 65.90331 | -46.55025 | 39237 ft | 486 kts | 96° |
| 2026-04-24 05:53 | 65.89677 | -46.38653 | 39238 ft | 484 kts | 96° |
| 2026-04-24 05:53 | 65.89119 | -46.25015 | 39246 ft | 484 kts | 96° |
| 2026-04-24 05:54 | 65.88318 | -46.05968 | 39256 ft | 484 kts | 96° |
| 2026-04-24 05:54 | 65.87731 | -45.92354 | 39257 ft | 484 kts | 96° |
| 2026-04-24 05:55 | 65.87008 | -45.75955 | 39259 ft | 484 kts | 97° |
| 2026-04-24 05:55 | 65.86272 | -45.59685 | 39259 ft | 483 kts | 96° |
| 2026-04-24 05:56 | 65.85516 | -45.43378 | 39266 ft | 482 kts | 96° |
| 2026-04-24 05:56 | 65.84747 | -45.27129 | 39266 ft | 482 kts | 97° |
| 2026-04-24 05:57 | 65.83961 | -45.10908 | 39268 ft | 482 kts | 97° |
| 2026-04-24 05:57 | 65.83155 | -44.94655 | 39265 ft | 482 kts | 97° |
| 2026-04-24 05:58 | 65.82333 | -44.78425 | 39265 ft | 482 kts | 97° |
| 2026-04-24 05:58 | 65.81493 | -44.62182 | 39265 ft | 482 kts | 97° |
| 2026-04-24 05:59 | 65.80639 | -44.46027 | 39259 ft | 479 kts | 97° |
| 2026-04-24 05:59 | 65.79775 | -44.30000 | 39265 ft | 476 kts | 97° |
| 2026-04-24 06:00 | 65.78894 | -44.13986 | 39278 ft | 476 kts | 97° |
| 2026-04-24 06:00 | 65.78001 | -43.98063 | 39282 ft | 478 kts | 97° |
| 2026-04-24 06:01 | 65.77079 | -43.81930 | 39290 ft | 479 kts | 98° |
| 2026-04-24 06:01 | 65.76146 | -43.65917 | 39303 ft | 478 kts | 98° |
| 2026-04-24 06:02 | 65.75197 | -43.49932 | 39304 ft | 478 kts | 98° |
| 2026-04-24 06:02 | 65.74233 | -43.33998 | 39305 ft | 473 kts | 98° |
| 2026-04-24 06:03 | 65.73265 | -43.18247 | 39316 ft | 472 kts | 98° |
| 2026-04-24 06:03 | 65.72274 | -43.02417 | 39317 ft | 472 kts | 98° |
| 2026-04-24 06:04 | 65.71273 | -42.86685 | 39327 ft | 472 kts | 98° |
| 2026-04-24 06:04 | 65.70255 | -42.70957 | 39325 ft | 475 kts | 98° |
| 2026-04-24 06:05 | 65.69204 | -42.54999 | 39325 ft | 478 kts | 98° |
| 2026-04-24 06:05 | 65.68140 | -42.39120 | 39332 ft | 477 kts | 98° |
| 2026-04-24 06:06 | 65.67068 | -42.23373 | 39328 ft | 473 kts | 98° |
| 2026-04-24 06:06 | 65.65984 | -42.07680 | 39328 ft | 472 kts | 99° |
| 2026-04-24 06:07 | 65.64877 | -41.91918 | 39325 ft | 472 kts | 98° |
| 2026-04-24 06:07 | 65.63764 | -41.76308 | 39325 ft | 473 kts | 99° |
| 2026-04-24 06:08 | 65.62627 | -41.60599 | 39333 ft | 472 kts | 99° |
| 2026-04-24 06:08 | 65.61480 | -41.44981 | 39332 ft | 472 kts | 99° |
| 2026-04-24 06:09 | 65.60309 | -41.29262 | 39334 ft | 476 kts | 99° |
| 2026-04-24 06:09 | 65.59117 | -41.13514 | 39341 ft | 478 kts | 99° |
| 2026-04-24 06:10 | 65.57905 | -40.97742 | 39341 ft | 478 kts | 99° |
| 2026-04-24 06:11 | 65.56054 | -40.74056 | 39335 ft | 478 kts | 99° |
| 2026-04-24 06:11 | 65.54800 | -40.58289 | 39346 ft | 478 kts | 100° |
| 2026-04-24 06:12 | 65.53533 | -40.42592 | 39344 ft | 478 kts | 100° |
| 2026-04-24 06:12 | 65.52245 | -40.26850 | 39318 ft | 475 kts | 100° |
| 2026-04-24 06:13 | 65.50958 | -40.11334 | 39318 ft | 472 kts | 100° |
| 2026-04-24 06:13 | 65.49649 | -39.95823 | 39301 ft | 477 kts | 101° |
| 2026-04-24 06:14 | 65.47990 | -39.80269 | 39300 ft | 479 kts | 105° |
| 2026-04-24 06:14 | 65.46178 | -39.64928 | 39300 ft | 480 kts | 104° |
| 2026-04-24 06:15 | 65.44371 | -39.49406 | 39303 ft | 479 kts | 104° |
| 2026-04-24 06:15 | 65.42605 | -39.34014 | 39306 ft | 479 kts | 104° |
| 2026-04-24 06:16 | 65.40845 | -39.18700 | 39305 ft | 474 kts | 104° |
| 2026-04-24 06:16 | 65.39072 | -39.03432 | 39306 ft | 474 kts | 104° |
| 2026-04-24 06:17 | 65.37290 | -38.88258 | 39301 ft | 474 kts | 105° |
| 2026-04-24 06:17 | 65.35492 | -38.73101 | 39309 ft | 474 kts | 105° |
| 2026-04-24 06:18 | 65.33672 | -38.57910 | 39309 ft | 475 kts | 105° |
| 2026-04-24 06:18 | 65.31820 | -38.42605 | 39312 ft | 477 kts | 105° |
| 2026-04-24 06:19 | 65.29973 | -38.27497 | 39307 ft | 474 kts | 105° |
| 2026-04-24 06:19 | 65.28114 | -38.12421 | 39307 ft | 473 kts | 105° |
| 2026-04-24 06:20 | 65.26235 | -37.97333 | 39307 ft | 473 kts | 105° |
| 2026-04-24 06:20 | 65.24338 | -37.82237 | 39304 ft | 473 kts | 105° |
| 2026-04-24 06:21 | 65.22432 | -37.67219 | 39307 ft | 473 kts | 105° |
| 2026-04-24 06:21 | 65.20511 | -37.52217 | 39308 ft | 474 kts | 106° |
| 2026-04-24 06:22 | 65.18586 | -37.37335 | 39304 ft | 471 kts | 106° |
| 2026-04-24 06:22 | 65.16646 | -37.22458 | 39305 ft | 469 kts | 106° |
| 2026-04-24 06:23 | 65.14688 | -37.07577 | 39306 ft | 472 kts | 106° |
| 2026-04-24 06:23 | 65.12716 | -36.92722 | 39306 ft | 473 kts | 106° |
| 2026-04-24 06:24 | 65.10724 | -36.77851 | 39307 ft | 473 kts | 107° |
| 2026-04-24 06:24 | 65.08719 | -36.63020 | 39309 ft | 473 kts | 107° |
| 2026-04-24 06:25 | 65.06685 | -36.48119 | 39311 ft | 472 kts | 106° |
| 2026-04-24 06:25 | 65.04666 | -36.33447 | 39308 ft | 468 kts | 107° |
| 2026-04-24 06:26 | 65.02637 | -36.18821 | 39309 ft | 468 kts | 107° |
| 2026-04-24 06:26 | 65.00595 | -36.04225 | 39314 ft | 468 kts | 107° |
| 2026-04-24 06:27 | 64.98526 | -35.89559 | 39311 ft | 468 kts | 107° |
| 2026-04-24 06:27 | 64.96457 | -35.75026 | 39314 ft | 468 kts | 107° |
| 2026-04-24 06:28 | 64.94368 | -35.60469 | 39329 ft | 468 kts | 107° |
| 2026-04-24 06:28 | 64.92276 | -35.46025 | 39321 ft | 463 kts | 107° |
| 2026-04-24 06:29 | 64.90194 | -35.31758 | 39323 ft | 462 kts | 107° |
| 2026-04-24 06:29 | 64.88084 | -35.17411 | 39320 ft | 462 kts | 107° |
| 2026-04-24 06:30 | 64.85977 | -35.03195 | 39323 ft | 462 kts | 107° |
| 2026-04-24 06:30 | 64.83846 | -34.88942 | 39324 ft | 462 kts | 108° |
| 2026-04-24 06:31 | 64.81698 | -34.74687 | 39326 ft | 462 kts | 108° |
| 2026-04-24 06:31 | 64.79540 | -34.60480 | 39330 ft | 458 kts | 108° |
| 2026-04-24 06:32 | 64.77401 | -34.46515 | 39326 ft | 456 kts | 108° |
| 2026-04-24 06:32 | 64.75241 | -34.32501 | 39332 ft | 460 kts | 108° |
| 2026-04-24 06:33 | 64.73054 | -34.18430 | 39332 ft | 460 kts | 108° |
| 2026-04-24 06:33 | 64.70855 | -34.04392 | 39332 ft | 460 kts | 108° |
| 2026-04-24 06:34 | 64.68637 | -33.90341 | 39327 ft | 460 kts | 108° |
| 2026-04-24 06:34 | 64.66410 | -33.76346 | 39344 ft | 460 kts | 108° |
| 2026-04-24 06:35 | 64.64173 | -33.62395 | 39323 ft | 456 kts | 108° |
| 2026-04-24 06:35 | 64.61940 | -33.48563 | 39324 ft | 456 kts | 108° |
| 2026-04-24 06:36 | 64.59707 | -33.34831 | 39344 ft | 455 kts | 109° |
| 2026-04-24 06:36 | 64.57440 | -33.20990 | 39351 ft | 456 kts | 109° |
| 2026-04-24 06:37 | 64.55176 | -33.07275 | 39339 ft | 457 kts | 109° |
| 2026-04-24 06:37 | 64.52874 | -32.93430 | 39338 ft | 459 kts | 109° |
| 2026-04-24 06:38 | 64.50566 | -32.79658 | 39343 ft | 457 kts | 109° |
| 2026-04-24 06:38 | 64.48258 | -32.65985 | 39343 ft | 455 kts | 109° |
| 2026-04-24 06:39 | 64.45940 | -32.52341 | 39344 ft | 455 kts | 109° |
| 2026-04-24 06:39 | 64.43607 | -32.38704 | 39345 ft | 455 kts | 109° |
| 2026-04-24 06:40 | 64.41252 | -32.25038 | 39345 ft | 455 kts | 109° |
| 2026-04-24 06:40 | 64.38904 | -32.11514 | 39347 ft | 455 kts | 109° |
| 2026-04-24 06:41 | 64.36526 | -31.97909 | 39347 ft | 455 kts | 110° |
| 2026-04-24 06:41 | 64.34143 | -31.84372 | 39348 ft | 455 kts | 110° |
| 2026-04-24 06:42 | 64.31760 | -31.70924 | 39347 ft | 458 kts | 110° |
| 2026-04-24 06:42 | 64.29324 | -31.57276 | 39348 ft | 459 kts | 110° |
| 2026-04-24 06:43 | 64.26890 | -31.43737 | 39353 ft | 459 kts | 110° |
| 2026-04-24 06:43 | 64.24438 | -31.30187 | 39358 ft | 459 kts | 110° |
| 2026-04-24 06:44 | 64.22380 | -31.18893 | 39353 ft | 459 kts | 110° |
| 2026-04-24 06:44 | 64.19898 | -31.05354 | 39357 ft | 457 kts | 110° |
| 2026-04-24 06:45 | 64.17431 | -30.91985 | 39357 ft | 456 kts | 110° |
| 2026-04-24 06:45 | 64.14946 | -30.78603 | 39359 ft | 455 kts | 110° |
| 2026-04-24 06:46 | 64.12456 | -30.65288 | 39358 ft | 456 kts | 110° |
| 2026-04-24 06:46 | 64.09949 | -30.51969 | 39359 ft | 456 kts | 111° |
| 2026-04-24 06:47 | 64.07435 | -30.38702 | 39366 ft | 457 kts | 111° |
| 2026-04-24 06:47 | 64.04886 | -30.25344 | 39371 ft | 457 kts | 111° |
| 2026-04-24 06:48 | 64.02343 | -30.12110 | 39366 ft | 455 kts | 111° |
| 2026-04-24 06:48 | 63.99802 | -29.98962 | 39369 ft | 455 kts | 111° |
| 2026-04-24 06:49 | 63.97218 | -29.85787 | 39368 ft | 455 kts | 111° |
| 2026-04-24 06:49 | 63.94600 | -29.72625 | 39372 ft | 455 kts | 112° |
| 2026-04-24 06:50 | 63.91991 | -29.59581 | 39370 ft | 455 kts | 112° |
| 2026-04-24 06:50 | 63.89363 | -29.46505 | 39371 ft | 455 kts | 112° |
| 2026-04-24 06:51 | 63.86735 | -29.33504 | 39374 ft | 453 kts | 112° |
| 2026-04-24 06:51 | 63.84089 | -29.20499 | 39372 ft | 453 kts | 112° |
| 2026-04-24 06:52 | 63.81447 | -29.07584 | 39374 ft | 454 kts | 112° |
| 2026-04-24 06:52 | 63.78786 | -28.94664 | 39371 ft | 454 kts | 112° |
| 2026-04-24 06:53 | 63.76104 | -28.81725 | 39374 ft | 454 kts | 112° |
| 2026-04-24 06:53 | 63.73399 | -28.68755 | 39370 ft | 454 kts | 112° |
| 2026-04-24 06:54 | 63.70714 | -28.55959 | 39378 ft | 454 kts | 112° |
| 2026-04-24 06:54 | 63.68000 | -28.43108 | 39381 ft | 454 kts | 112° |
| 2026-04-24 06:55 | 63.65264 | -28.30228 | 39384 ft | 454 kts | 112° |
| 2026-04-24 06:55 | 63.62537 | -28.17469 | 39380 ft | 454 kts | 113° |
| 2026-04-24 06:56 | 63.59782 | -28.04656 | 39385 ft | 454 kts | 113° |
| 2026-04-24 06:56 | 63.57030 | -27.91935 | 39389 ft | 455 kts | 113° |
| 2026-04-24 06:57 | 63.54237 | -27.79101 | 39395 ft | 456 kts | 113° |
| 2026-04-24 06:57 | 63.51440 | -27.66328 | 39390 ft | 458 kts | 113° |
| 2026-04-24 06:58 | 63.48635 | -27.53597 | 39385 ft | 458 kts | 113° |
| 2026-04-24 06:58 | 63.45794 | -27.40779 | 39385 ft | 458 kts | 114° |
| 2026-04-24 06:59 | 63.42963 | -27.28079 | 39390 ft | 458 kts | 114° |
| 2026-04-24 06:59 | 63.40105 | -27.15338 | 39392 ft | 458 kts | 114° |
| 2026-04-24 07:00 | 63.37252 | -27.02692 | 39388 ft | 458 kts | 114° |
| 2026-04-24 07:00 | 63.34364 | -26.89960 | 39391 ft | 461 kts | 114° |
| 2026-04-24 07:01 | 63.31454 | -26.77218 | 39389 ft | 463 kts | 114° |
| 2026-04-24 07:01 | 63.28525 | -26.64468 | 39387 ft | 464 kts | 114° |
| 2026-04-24 07:02 | 63.25581 | -26.51725 | 39388 ft | 464 kts | 114° |
| 2026-04-24 07:02 | 63.22620 | -26.38989 | 39386 ft | 464 kts | 115° |
| 2026-04-24 07:03 | 63.19663 | -26.26340 | 39388 ft | 464 kts | 115° |
| 2026-04-24 07:03 | 63.16677 | -26.13637 | 39388 ft | 466 kts | 115° |
| 2026-04-24 07:04 | 63.13680 | -26.00954 | 39387 ft | 467 kts | 115° |
| 2026-04-24 07:04 | 63.10648 | -25.88211 | 39387 ft | 468 kts | 115° |
| 2026-04-24 07:05 | 63.07610 | -25.75513 | 39387 ft | 468 kts | 115° |
| 2026-04-24 07:05 | 63.04563 | -25.62857 | 39384 ft | 468 kts | 115° |
| 2026-04-24 07:06 | 63.01490 | -25.50164 | 39387 ft | 469 kts | 116° |
| 2026-04-24 07:06 | 62.98412 | -25.37526 | 39391 ft | 471 kts | 116° |
| 2026-04-24 07:07 | 62.95301 | -25.24819 | 39390 ft | 473 kts | 116° |
| 2026-04-24 07:07 | 62.90596 | -25.05740 | 39389 ft | 474 kts | 117° |
| 2026-04-24 07:08 | 62.87454 | -24.93097 | 39387 ft | 474 kts | 117° |
| 2026-04-24 07:08 | 62.84277 | -24.80386 | 39387 ft | 474 kts | 117° |
| 2026-04-24 07:09 | 62.81114 | -24.67801 | 39390 ft | 474 kts | 117° |
| 2026-04-24 07:09 | 62.77912 | -24.55129 | 39384 ft | 475 kts | 117° |
| 2026-04-24 07:10 | 62.74707 | -24.42523 | 39389 ft | 477 kts | 118° |
| 2026-04-24 07:10 | 62.71481 | -24.29908 | 39390 ft | 478 kts | 118° |
| 2026-04-24 07:11 | 62.68231 | -24.17271 | 39390 ft | 478 kts | 118° |
| 2026-04-24 07:11 | 62.64959 | -24.04617 | 39389 ft | 478 kts | 118° |
| 2026-04-24 07:12 | 62.61680 | -23.92012 | 39387 ft | 478 kts | 118° |
| 2026-04-24 07:12 | 62.58400 | -23.79472 | 39387 ft | 478 kts | 118° |
| 2026-04-24 07:13 | 62.55118 | -23.66992 | 39384 ft | 478 kts | 118° |
| 2026-04-24 07:13 | 62.51806 | -23.54473 | 39390 ft | 478 kts | 118° |
| 2026-04-24 07:14 | 62.48482 | -23.41976 | 39384 ft | 478 kts | 118° |
| 2026-04-24 07:14 | 62.45160 | -23.29555 | 39384 ft | 478 kts | 119° |
| 2026-04-24 07:15 | 62.41830 | -23.17175 | 39390 ft | 478 kts | 119° |
| 2026-04-24 07:15 | 62.38476 | -23.04772 | 39387 ft | 481 kts | 119° |
| 2026-04-24 07:16 | 62.35083 | -22.92294 | 39387 ft | 481 kts | 119° |
| 2026-04-24 07:16 | 62.31707 | -22.79951 | 39382 ft | 481 kts | 120° |
| 2026-04-24 07:17 | 62.28297 | -22.67549 | 39382 ft | 481 kts | 120° |
| 2026-04-24 07:17 | 62.24917 | -22.55324 | 39374 ft | 481 kts | 120° |
| 2026-04-24 07:18 | 62.21475 | -22.42937 | 39372 ft | 481 kts | 120° |
| 2026-04-24 07:18 | 62.18039 | -22.30642 | 39374 ft | 482 kts | 120° |
| 2026-04-24 07:19 | 62.14591 | -22.18376 | 39374 ft | 483 kts | 120° |
| 2026-04-24 07:19 | 62.11111 | -22.06061 | 39370 ft | 484 kts | 120° |
| 2026-04-24 07:20 | 62.07620 | -21.93773 | 39369 ft | 484 kts | 121° |
| 2026-04-24 07:20 | 62.04128 | -21.81550 | 39373 ft | 484 kts | 121° |
| 2026-04-24 07:21 | 62.00602 | -21.69273 | 39372 ft | 484 kts | 121° |
| 2026-04-24 07:21 | 61.97095 | -21.57127 | 39370 ft | 484 kts | 121° |
| 2026-04-24 07:22 | 61.93556 | -21.44934 | 39367 ft | 485 kts | 121° |
| 2026-04-24 07:22 | 61.89998 | -21.32744 | 39370 ft | 484 kts | 121° |
| 2026-04-24 07:23 | 61.86450 | -21.20649 | 39368 ft | 484 kts | 122° |
| 2026-04-24 07:23 | 61.82882 | -21.08552 | 39359 ft | 487 kts | 122° |
| 2026-04-24 07:24 | 61.79271 | -20.96374 | 39368 ft | 488 kts | 122° |
| 2026-04-24 07:24 | 61.75661 | -20.84267 | 39360 ft | 489 kts | 122° |
| 2026-04-24 07:25 | 61.72026 | -20.72138 | 39362 ft | 489 kts | 122° |
| 2026-04-24 07:25 | 61.68390 | -20.60071 | 39360 ft | 488 kts | 122° |
| 2026-04-24 07:26 | 61.64717 | -20.47943 | 39360 ft | 489 kts | 123° |
| 2026-04-24 07:26 | 61.61063 | -20.35942 | 39354 ft | 489 kts | 123° |
| 2026-04-24 07:27 | 61.57403 | -20.23982 | 39355 ft | 489 kts | 123° |
| 2026-04-24 07:27 | 61.53690 | -20.11918 | 39360 ft | 489 kts | 123° |
| 2026-04-24 07:28 | 61.49999 | -19.99985 | 39358 ft | 492 kts | 123° |
| 2026-04-24 07:28 | 61.46410 | -19.87733 | 39355 ft | 493 kts | 120° |
| 2026-04-24 07:29 | 61.42970 | -19.75263 | 39352 ft | 493 kts | 120° |
| 2026-04-24 07:29 | 61.39537 | -19.62944 | 39357 ft | 492 kts | 121° |
| 2026-04-24 07:30 | 61.36641 | -19.52728 | 39357 ft | 493 kts | 121° |
| 2026-04-24 07:30 | 61.32537 | -19.38418 | 39355 ft | 493 kts | 121° |
| 2026-04-24 07:31 | 61.29592 | -19.28213 | 39354 ft | 492 kts | 122° |
| 2026-04-24 07:31 | 61.26078 | -19.16083 | 39347 ft | 492 kts | 122° |
| 2026-04-24 07:32 | 61.22535 | -19.03916 | 39350 ft | 494 kts | 122° |
| 2026-04-24 07:32 | 61.18957 | -18.91693 | 39344 ft | 494 kts | 122° |
| 2026-04-24 07:33 | 61.15390 | -18.79570 | 39347 ft | 493 kts | 122° |
| 2026-04-24 07:33 | 61.11828 | -18.67528 | 39347 ft | 493 kts | 122° |
| 2026-04-24 07:34 | 61.08220 | -18.55400 | 39346 ft | 493 kts | 122° |
| 2026-04-24 07:34 | 61.04629 | -18.43390 | 39346 ft | 493 kts | 123° |
| 2026-04-24 07:35 | 61.01006 | -18.31335 | 39344 ft | 493 kts | 123° |
| 2026-04-24 07:35 | 60.97388 | -18.19360 | 39342 ft | 493 kts | 123° |
| 2026-04-24 07:36 | 60.93766 | -18.07431 | 39344 ft | 493 kts | 123° |
| 2026-04-24 07:36 | 60.90128 | -17.95519 | 39344 ft | 493 kts | 123° |
| 2026-04-24 07:37 | 60.86456 | -17.83553 | 39346 ft | 493 kts | 123° |
| 2026-04-24 07:37 | 60.82800 | -17.71699 | 39346 ft | 493 kts | 123° |
| 2026-04-24 07:38 | 60.79110 | -17.59799 | 39344 ft | 493 kts | 123° |
| 2026-04-24 07:38 | 60.75434 | -17.47999 | 39340 ft | 492 kts | 124° |
| 2026-04-24 07:39 | 60.71763 | -17.36280 | 39344 ft | 490 kts | 124° |
| 2026-04-24 07:39 | 60.68059 | -17.24517 | 39341 ft | 490 kts | 124° |
| 2026-04-24 07:40 | 60.64367 | -17.12854 | 39344 ft | 492 kts | 124° |
| 2026-04-24 07:40 | 60.60632 | -17.01109 | 39344 ft | 492 kts | 124° |
| 2026-04-24 07:41 | 60.56903 | -16.89443 | 39344 ft | 492 kts | 125° |
| 2026-04-24 07:41 | 60.53168 | -16.77818 | 39344 ft | 492 kts | 125° |
| 2026-04-24 07:42 | 60.49419 | -16.66205 | 39344 ft | 492 kts | 125° |
| 2026-04-24 07:42 | 60.45644 | -16.54571 | 39344 ft | 492 kts | 125° |
| 2026-04-24 07:43 | 60.41885 | -16.43044 | 39341 ft | 492 kts | 125° |
| 2026-04-24 07:43 | 60.38089 | -16.31461 | 39342 ft | 492 kts | 126° |
| 2026-04-24 07:44 | 60.34308 | -16.19982 | 39329 ft | 493 kts | 126° |
| 2026-04-24 07:44 | 60.30492 | -16.08451 | 39340 ft | 491 kts | 126° |
| 2026-04-24 07:45 | 60.26710 | -15.97082 | 39343 ft | 491 kts | 126° |
| 2026-04-24 07:45 | 60.22897 | -15.85674 | 39341 ft | 491 kts | 126° |
| 2026-04-24 07:46 | 60.19074 | -15.74295 | 39341 ft | 491 kts | 126° |
| 2026-04-24 07:46 | 60.15261 | -15.62997 | 39342 ft | 490 kts | 126° |
| 2026-04-24 07:47 | 60.11410 | -15.51644 | 39342 ft | 491 kts | 126° |
| 2026-04-24 07:47 | 60.07562 | -15.40356 | 39336 ft | 492 kts | 127° |
| 2026-04-24 07:48 | 60.03696 | -15.29070 | 39341 ft | 493 kts | 127° |
| 2026-04-24 07:48 | 59.99802 | -15.17754 | 39344 ft | 493 kts | 127° |
| 2026-04-24 07:49 | 59.95890 | -15.06439 | 39340 ft | 493 kts | 127° |
| 2026-04-24 07:49 | 59.91990 | -14.95217 | 39339 ft | 493 kts | 127° |
| 2026-04-24 07:50 | 59.88072 | -14.83995 | 39344 ft | 493 kts | 127° |
| 2026-04-24 07:50 | 59.84145 | -14.72799 | 39342 ft | 493 kts | 127° |
| 2026-04-24 07:51 | 59.80232 | -14.61701 | 39336 ft | 493 kts | 127° |
| 2026-04-24 07:51 | 59.76285 | -14.50554 | 39337 ft | 493 kts | 127° |
| 2026-04-24 07:52 | 59.72327 | -14.39433 | 39341 ft | 494 kts | 128° |
| 2026-04-24 07:52 | 59.68345 | -14.28297 | 39338 ft | 494 kts | 128° |
| 2026-04-24 07:53 | 59.64389 | -14.17280 | 39344 ft | 490 kts | 128° |
| 2026-04-24 07:53 | 59.60445 | -14.06353 | 39342 ft | 489 kts | 128° |
| 2026-04-24 07:54 | 59.56498 | -13.95471 | 39343 ft | 488 kts | 128° |
| 2026-04-24 07:54 | 59.52526 | -13.84570 | 39345 ft | 488 kts | 128° |
| 2026-04-24 07:55 | 59.48549 | -13.73704 | 39342 ft | 488 kts | 128° |
| 2026-04-24 07:55 | 59.44585 | -13.62920 | 39334 ft | 487 kts | 129° |
| 2026-04-24 07:56 | 59.40619 | -13.52179 | 39339 ft | 483 kts | 129° |
| 2026-04-24 07:56 | 59.36675 | -13.41551 | 39339 ft | 482 kts | 129° |
| 2026-04-24 07:57 | 59.32718 | -13.30937 | 39347 ft | 482 kts | 129° |
| 2026-04-24 07:57 | 59.28742 | -13.20318 | 39343 ft | 482 kts | 129° |
| 2026-04-24 07:58 | 59.24777 | -13.09777 | 39339 ft | 482 kts | 129° |
| 2026-04-24 07:58 | 59.20790 | -12.99224 | 39337 ft | 481 kts | 129° |
| 2026-04-24 07:59 | 59.16818 | -12.88756 | 39334 ft | 481 kts | 129° |
| 2026-04-24 07:59 | 59.12828 | -12.78288 | 39338 ft | 482 kts | 129° |
| 2026-04-24 08:00 | 59.08825 | -12.67832 | 39335 ft | 483 kts | 130° |
| 2026-04-24 08:00 | 59.04813 | -12.57402 | 39344 ft | 483 kts | 130° |
| 2026-04-24 08:01 | 59.00765 | -12.46920 | 39341 ft | 482 kts | 130° |
| 2026-04-24 08:01 | 58.96750 | -12.36572 | 39333 ft | 482 kts | 130° |
| 2026-04-24 08:02 | 58.92707 | -12.26197 | 39340 ft | 482 kts | 130° |
| 2026-04-24 08:02 | 58.88669 | -12.15879 | 39338 ft | 482 kts | 130° |
| 2026-04-24 08:03 | 58.84607 | -12.05547 | 39336 ft | 483 kts | 130° |
| 2026-04-24 08:03 | 58.80542 | -11.95250 | 39332 ft | 483 kts | 130° |
| 2026-04-24 08:04 | 58.76439 | -11.84905 | 39335 ft | 483 kts | 130° |
| 2026-04-24 08:04 | 58.72360 | -11.74662 | 39332 ft | 482 kts | 130° |
| 2026-04-24 08:05 | 58.68295 | -11.64498 | 39332 ft | 482 kts | 131° |
| 2026-04-24 08:05 | 58.64188 | -11.54276 | 39339 ft | 482 kts | 131° |
| 2026-04-24 08:06 | 58.60079 | -11.44094 | 39333 ft | 482 kts | 131° |
| 2026-04-24 08:06 | 58.55996 | -11.34017 | 39348 ft | 482 kts | 131° |
| 2026-04-24 08:07 | 58.51866 | -11.23868 | 39340 ft | 482 kts | 131° |
| 2026-04-24 08:07 | 58.47764 | -11.13831 | 39338 ft | 480 kts | 131° |
| 2026-04-24 08:08 | 58.43656 | -11.03822 | 39338 ft | 480 kts | 131° |
| 2026-04-24 08:09 | 58.37459 | -10.88802 | 39342 ft | 480 kts | 131° |
| 2026-04-24 08:09 | 58.33329 | -10.78847 | 39339 ft | 480 kts | 131° |
| 2026-04-24 08:10 | 58.29167 | -10.68856 | 39341 ft | 480 kts | 131° |
| 2026-04-24 08:10 | 58.25016 | -10.58931 | 39340 ft | 479 kts | 131° |
| 2026-04-24 08:11 | 58.20866 | -10.49052 | 39341 ft | 480 kts | 131° |
| 2026-04-24 08:11 | 58.16718 | -10.39218 | 39346 ft | 480 kts | 131° |
| 2026-04-24 08:12 | 58.12524 | -10.29317 | 39343 ft | 480 kts | 131° |
| 2026-04-24 08:12 | 58.08363 | -10.19534 | 39343 ft | 480 kts | 132° |
| 2026-04-24 08:13 | 58.04173 | -10.09723 | 39333 ft | 478 kts | 132° |
| 2026-04-24 08:13 | 58.00246 | -9.99656 | 39341 ft | 480 kts | 123° |
| 2026-04-24 08:14 | 57.97384 | -9.88284 | 39337 ft | 483 kts | 116° |
| 2026-04-24 08:14 | 57.94857 | -9.76476 | 39341 ft | 484 kts | 114° |
| 2026-04-24 08:15 | 57.92379 | -9.64718 | 39344 ft | 485 kts | 115° |
| 2026-04-24 08:15 | 57.89700 | -9.53079 | 39347 ft | 483 kts | 122° |
| 2026-04-24 08:16 | 57.85802 | -9.43008 | 39347 ft | 476 kts | 134° |
| 2026-04-24 08:16 | 57.81360 | -9.33810 | 39346 ft | 475 kts | 136° |
| 2026-04-24 08:17 | 57.76822 | -9.24748 | 39344 ft | 475 kts | 136° |
| 2026-04-24 08:17 | 57.73067 | -9.17245 | 39343 ft | 475 kts | 136° |
| 2026-04-24 08:18 | 57.67805 | -9.06698 | 39337 ft | 476 kts | 136° |
| 2026-04-24 08:18 | 57.64041 | -8.99158 | 39348 ft | 478 kts | 136° |
| 2026-04-24 08:19 | 57.59495 | -8.90084 | 39341 ft | 478 kts | 135° |
| 2026-04-24 08:19 | 57.54930 | -8.81008 | 39344 ft | 478 kts | 135° |
| 2026-04-24 08:20 | 57.50394 | -8.72025 | 39344 ft | 478 kts | 135° |
| 2026-04-24 08:20 | 57.45833 | -8.63031 | 39347 ft | 478 kts | 136° |
| 2026-04-24 08:21 | 57.41263 | -8.54053 | 39344 ft | 478 kts | 136° |
| 2026-04-24 08:21 | 57.36703 | -8.45131 | 39335 ft | 478 kts | 136° |
| 2026-04-24 08:22 | 57.32128 | -8.36214 | 39346 ft | 477 kts | 135° |
| 2026-04-24 08:22 | 57.27557 | -8.27338 | 39349 ft | 478 kts | 135° |
| 2026-04-24 08:23 | 57.22961 | -8.18449 | 39349 ft | 478 kts | 136° |
| 2026-04-24 08:23 | 57.18347 | -8.09557 | 39349 ft | 478 kts | 136° |
| 2026-04-24 08:24 | 57.13766 | -8.00764 | 39349 ft | 478 kts | 136° |
| 2026-04-24 08:24 | 57.09134 | -7.91910 | 39349 ft | 477 kts | 135° |
| 2026-04-24 08:25 | 57.04541 | -7.83160 | 39349 ft | 477 kts | 136° |
| 2026-04-24 08:25 | 56.99944 | -7.74436 | 39352 ft | 476 kts | 136° |
| 2026-04-24 08:26 | 56.95318 | -7.65693 | 39352 ft | 476 kts | 136° |
| 2026-04-24 08:26 | 56.90701 | -7.56999 | 39352 ft | 477 kts | 136° |
| 2026-04-24 08:27 | 56.86060 | -7.48293 | 39354 ft | 477 kts | 135° |
| 2026-04-24 08:27 | 56.81437 | -7.39652 | 39355 ft | 477 kts | 135° |
| 2026-04-24 08:28 | 56.76777 | -7.30973 | 39355 ft | 477 kts | 136° |
| 2026-04-24 08:28 | 56.72152 | -7.22395 | 39354 ft | 476 kts | 136° |
| 2026-04-24 08:29 | 56.67510 | -7.13815 | 39354 ft | 476 kts | 136° |
| 2026-04-24 08:29 | 56.62849 | -7.05234 | 39352 ft | 476 kts | 136° |
| 2026-04-24 08:30 | 56.58192 | -6.96692 | 39355 ft | 475 kts | 136° |
| 2026-04-24 08:30 | 56.53511 | -6.88139 | 39357 ft | 477 kts | 136° |
| 2026-04-24 08:31 | 56.48843 | -6.79638 | 39357 ft | 477 kts | 136° |
| 2026-04-24 08:31 | 56.44170 | -6.71160 | 39354 ft | 477 kts | 136° |
| 2026-04-24 08:32 | 56.39477 | -6.62679 | 39354 ft | 477 kts | 136° |
| 2026-04-24 08:32 | 56.34789 | -6.54238 | 39358 ft | 477 kts | 136° |
| 2026-04-24 08:33 | 56.30071 | -6.45774 | 39358 ft | 477 kts | 136° |
| 2026-04-24 08:33 | 56.25369 | -6.37369 | 39360 ft | 477 kts | 136° |
| 2026-04-24 08:34 | 56.20679 | -6.29018 | 39362 ft | 477 kts | 136° |
| 2026-04-24 08:34 | 56.15935 | -6.20599 | 39359 ft | 477 kts | 136° |
| 2026-04-24 08:35 | 56.11226 | -6.12275 | 39365 ft | 476 kts | 136° |
| 2026-04-24 08:35 | 56.06502 | -6.03954 | 39365 ft | 476 kts | 136° |
| 2026-04-24 08:36 | 56.01785 | -5.95674 | 39364 ft | 476 kts | 136° |
| 2026-04-24 08:36 | 55.97065 | -5.87419 | 39361 ft | 476 kts | 136° |
| 2026-04-24 08:37 | 55.92306 | -5.79128 | 39363 ft | 476 kts | 136° |
| 2026-04-24 08:37 | 55.87570 | -5.70904 | 39363 ft | 476 kts | 136° |
| 2026-04-24 08:38 | 55.82838 | -5.62720 | 39360 ft | 476 kts | 136° |
| 2026-04-24 08:38 | 55.78064 | -5.54490 | 39366 ft | 480 kts | 136° |
| 2026-04-24 08:39 | 55.73281 | -5.46275 | 39370 ft | 480 kts | 136° |
| 2026-04-24 08:39 | 55.68462 | -5.38029 | 39368 ft | 480 kts | 136° |
| 2026-04-24 08:40 | 55.63670 | -5.29859 | 39375 ft | 480 kts | 136° |
| 2026-04-24 08:40 | 55.58858 | -5.21682 | 39374 ft | 480 kts | 136° |
| 2026-04-24 08:41 | 55.54034 | -5.13513 | 39365 ft | 480 kts | 136° |
| 2026-04-24 08:41 | 55.49220 | -5.05392 | 39371 ft | 480 kts | 136° |
| 2026-04-24 08:42 | 55.44385 | -4.97265 | 39367 ft | 481 kts | 136° |
| 2026-04-24 08:42 | 55.39516 | -4.89109 | 39369 ft | 483 kts | 136° |
| 2026-04-24 08:43 | 55.34656 | -4.80998 | 39370 ft | 483 kts | 136° |
| 2026-04-24 08:43 | 55.29750 | -4.72838 | 39368 ft | 483 kts | 136° |
| 2026-04-24 08:44 | 55.24929 | -4.64849 | 39367 ft | 484 kts | 136° |
| 2026-04-24 08:44 | 55.20037 | -4.56770 | 39362 ft | 484 kts | 136° |
| 2026-04-24 08:45 | 55.15145 | -4.48721 | 39365 ft | 484 kts | 136° |
| 2026-04-24 08:45 | 55.10233 | -4.40665 | 39362 ft | 484 kts | 136° |
| 2026-04-24 08:46 | 55.05469 | -4.32883 | 39362 ft | 484 kts | 136° |
| 2026-04-24 08:46 | 55.00560 | -4.24888 | 39363 ft | 485 kts | 136° |
| 2026-04-24 08:47 | 54.95613 | -4.16861 | 39363 ft | 485 kts | 136° |
| 2026-04-24 08:47 | 54.90693 | -4.08907 | 39369 ft | 485 kts | 136° |
| 2026-04-24 08:48 | 54.85716 | -4.00887 | 39375 ft | 486 kts | 136° |
| 2026-04-24 08:48 | 54.80787 | -3.92972 | 39367 ft | 486 kts | 136° |
| 2026-04-24 08:49 | 54.75845 | -3.85065 | 39371 ft | 486 kts | 136° |
| 2026-04-24 08:49 | 54.70868 | -3.77130 | 39380 ft | 486 kts | 136° |
| 2026-04-24 08:50 | 54.65886 | -3.69214 | 39372 ft | 488 kts | 136° |
| 2026-04-24 08:50 | 54.60892 | -3.61307 | 39376 ft | 488 kts | 136° |
| 2026-04-24 08:51 | 54.55854 | -3.53357 | 39376 ft | 489 kts | 136° |
| 2026-04-24 08:51 | 54.50835 | -3.45465 | 39377 ft | 489 kts | 136° |
| 2026-04-24 08:52 | 54.45822 | -3.37611 | 39369 ft | 489 kts | 136° |
| 2026-04-24 08:52 | 54.40804 | -3.29776 | 39367 ft | 490 kts | 136° |
| 2026-04-24 08:53 | 54.35726 | -3.21874 | 39370 ft | 491 kts | 136° |
| 2026-04-24 08:53 | 54.30681 | -3.14051 | 39371 ft | 490 kts | 137° |
| 2026-04-24 08:54 | 54.25611 | -3.06217 | 39369 ft | 490 kts | 137° |
| 2026-04-24 08:54 | 54.20551 | -2.98426 | 39376 ft | 490 kts | 137° |
| 2026-04-24 08:55 | 54.14981 | -2.91768 | 39377 ft | 491 kts | 153° |
| 2026-04-24 08:55 | 54.08759 | -2.86887 | 39376 ft | 492 kts | 156° |
| 2026-04-24 08:56 | 54.02426 | -2.82347 | 39377 ft | 492 kts | 157° |
| 2026-04-24 08:56 | 53.95962 | -2.78605 | 39376 ft | 492 kts | 162° |
| 2026-04-24 08:57 | 53.89431 | -2.75142 | 39379 ft | 493 kts | 162° |
| 2026-04-24 08:57 | 53.82855 | -2.71670 | 39381 ft | 493 kts | 162° |
| 2026-04-24 08:58 | 53.76383 | -2.68264 | 39382 ft | 493 kts | 162° |
| 2026-04-24 08:58 | 53.69838 | -2.64831 | 39378 ft | 494 kts | 163° |
| 2026-04-24 08:59 | 53.63235 | -2.61380 | 39382 ft | 495 kts | 163° |
| 2026-04-24 08:59 | 53.56690 | -2.57969 | 39388 ft | 495 kts | 163° |
| 2026-04-24 09:00 | 53.50114 | -2.54554 | 39382 ft | 491 kts | 163° |
| 2026-04-24 09:00 | 53.43622 | -2.51192 | 39376 ft | 490 kts | 163° |
| 2026-04-24 09:01 | 53.37075 | -2.47814 | 39376 ft | 490 kts | 163° |
| 2026-04-24 09:01 | 53.30548 | -2.44456 | 39374 ft | 490 kts | 163° |
| 2026-04-24 09:02 | 53.24036 | -2.41116 | 39376 ft | 490 kts | 163° |
| 2026-04-24 09:02 | 53.17524 | -2.37787 | 39378 ft | 490 kts | 163° |
| 2026-04-24 09:03 | 53.11331 | -2.34632 | 39379 ft | 491 kts | 163° |
| 2026-04-24 09:03 | 53.04820 | -2.31304 | 39380 ft | 491 kts | 162° |
| 2026-04-24 09:03 | 53.01701 | -2.29034 | 39386 ft | 491 kts | 150° |
| 2026-04-24 09:04 | 52.98777 | -2.26074 | 39379 ft | 491 kts | 148° |
| 2026-04-24 09:04 | 52.93012 | -2.19972 | 39388 ft | 492 kts | 148° |
| 2026-04-24 09:05 | 52.87377 | -2.14055 | 39387 ft | 492 kts | 148° |
| 2026-04-24 09:05 | 52.81587 | -2.08010 | 39393 ft | 492 kts | 148° |
| 2026-04-24 09:06 | 52.76738 | -2.02968 | 39386 ft | 493 kts | 148° |
| 2026-04-24 09:06 | 52.73895 | -2.00017 | 38935 ft | 488 kts | 149° |
| 2026-04-24 09:06 | 52.71019 | -1.97039 | 38038 ft | 489 kts | 149° |
| 2026-04-24 09:06 | 52.68130 | -1.94052 | 37111 ft | 492 kts | 149° |
| 2026-04-24 09:07 | 52.65291 | -1.90907 | 36180 ft | 495 kts | 144° |
| 2026-04-24 09:07 | 52.62673 | -1.87312 | 35297 ft | 497 kts | 139° |
| 2026-04-24 09:07 | 52.57504 | -1.79585 | 33387 ft | 500 kts | 138° |
| 2026-04-24 09:08 | 52.54971 | -1.75777 | 32468 ft | 499 kts | 138° |
| 2026-04-24 09:08 | 52.52418 | -1.71940 | 31525 ft | 498 kts | 138° |
| 2026-04-24 09:08 | 52.49863 | -1.68104 | 30580 ft | 497 kts | 138° |
| 2026-04-24 09:08 | 52.47363 | -1.64357 | 29444 ft | 499 kts | 139° |
| 2026-04-24 09:09 | 52.45464 | -1.61514 | 28773 ft | 496 kts | 139° |
| 2026-04-24 09:09 | 52.42932 | -1.57728 | 28036 ft | 489 kts | 139° |
| 2026-04-24 09:09 | 52.40440 | -1.54006 | 27312 ft | 479 kts | 139° |
| 2026-04-24 09:09 | 52.38030 | -1.50413 | 26349 ft | 460 kts | 139° |
| 2026-04-24 09:10 | 52.35681 | -1.46916 | 25726 ft | 454 kts | 139° |
| 2026-04-24 09:10 | 52.33356 | -1.43465 | 25448 ft | 450 kts | 139° |
| 2026-04-24 09:10 | 52.31091 | -1.40105 | 25395 ft | 450 kts | 139° |
| 2026-04-24 09:10 | 52.28777 | -1.36676 | 25398 ft | 449 kts | 139° |
| 2026-04-24 09:11 | 52.26466 | -1.33257 | 25403 ft | 448 kts | 139° |
| 2026-04-24 09:11 | 52.24211 | -1.29923 | 25051 ft | 425 kts | 139° |
| 2026-04-24 09:11 | 52.22061 | -1.26748 | 24044 ft | 412 kts | 139° |
| 2026-04-24 09:11 | 52.19938 | -1.23621 | 22276 ft | 413 kts | 139° |
| 2026-04-24 09:12 | 52.17857 | -1.20561 | 20690 ft | 414 kts | 139° |
| 2026-04-24 09:12 | 52.15818 | -1.17567 | 19306 ft | 410 kts | 139° |
| 2026-04-24 09:12 | 52.13717 | -1.14485 | 17828 ft | 404 kts | 139° |
| 2026-04-24 09:12 | 52.11638 | -1.11439 | 16552 ft | 399 kts | 138° |
| 2026-04-24 09:13 | 52.09579 | -1.08425 | 15828 ft | 398 kts | 138° |
| 2026-04-24 09:13 | 52.07506 | -1.05396 | 15483 ft | 399 kts | 138° |
| 2026-04-24 09:13 | 52.05455 | -1.02405 | 15391 ft | 394 kts | 138° |
| 2026-04-24 09:13 | 52.03472 | -0.99513 | 15055 ft | 371 kts | 138° |
| 2026-04-24 09:14 | 52.01594 | -0.96778 | 14208 ft | 356 kts | 138° |
| 2026-04-24 09:14 | 51.99829 | -0.94211 | 13600 ft | 336 kts | 137° |
| 2026-04-24 09:14 | 51.98143 | -0.91763 | 13124 ft | 315 kts | 137° |
| 2026-04-24 09:14 | 51.96557 | -0.89463 | 12610 ft | 299 kts | 137° |
| 2026-04-24 09:15 | 51.95030 | -0.87249 | 11905 ft | 291 kts | 137° |
| 2026-04-24 09:15 | 51.93529 | -0.85075 | 11159 ft | 288 kts | 136° |
| 2026-04-24 09:15 | 51.92052 | -0.82937 | 10444 ft | 283 kts | 136° |
| 2026-04-24 09:15 | 51.90722 | -0.81011 | 9746 ft | 280 kts | 136° |
| 2026-04-24 09:16 | 51.89275 | -0.78916 | 8999 ft | 276 kts | 136° |
| 2026-04-24 09:16 | 51.87850 | -0.76856 | 8534 ft | 274 kts | 136° |
| 2026-04-24 09:16 | 51.86452 | -0.74841 | 8378 ft | 260 kts | 136° |
| 2026-04-24 09:16 | 51.85138 | -0.72952 | 8375 ft | 254 kts | 136° |
| 2026-04-24 09:17 | 51.83820 | -0.71052 | 8380 ft | 253 kts | 136° |
| 2026-04-24 09:17 | 51.82506 | -0.69161 | 8376 ft | 252 kts | 136° |
| 2026-04-24 09:17 | 51.81197 | -0.67278 | 8380 ft | 252 kts | 136° |
| 2026-04-24 09:17 | 51.79886 | -0.65395 | 8372 ft | 251 kts | 136° |
| 2026-04-24 09:18 | 51.78587 | -0.63531 | 8379 ft | 250 kts | 136° |
| 2026-04-24 09:18 | 51.77288 | -0.61667 | 8372 ft | 249 kts | 136° |
| 2026-04-24 09:18 | 51.75992 | -0.59811 | 8372 ft | 249 kts | 136° |
| 2026-04-24 09:18 | 51.74697 | -0.57961 | 8373 ft | 249 kts | 136° |
| 2026-04-24 09:19 | 51.73256 | -0.56404 | 8385 ft | 253 kts | 154° |
| 2026-04-24 09:19 | 51.71532 | -0.55943 | 8399 ft | 258 kts | 182° |
| 2026-04-24 09:19 | 51.69819 | -0.56866 | 8379 ft | 265 kts | 210° |
| 2026-04-24 09:19 | 51.68377 | -0.58691 | 8372 ft | 268 kts | 219° |
| 2026-04-24 09:20 | 51.67037 | -0.60678 | 8371 ft | 269 kts | 220° |
| 2026-04-24 09:20 | 51.65248 | -0.63386 | 8290 ft | 264 kts | 221° |
| 2026-04-24 09:20 | 51.64433 | -0.64786 | 8289 ft | 261 kts | 227° |
| 2026-04-24 09:20 | 51.63300 | -0.67090 | 8288 ft | 260 kts | 230° |
| 2026-04-24 09:21 | 51.62208 | -0.69407 | 8284 ft | 259 kts | 231° |
| 2026-04-24 09:21 | 51.61120 | -0.71722 | 8283 ft | 259 kts | 231° |
| 2026-04-24 09:21 | 51.60034 | -0.74034 | 8275 ft | 258 kts | 231° |
| 2026-04-24 09:21 | 51.58975 | -0.76292 | 7818 ft | 252 kts | 231° |
| 2026-04-24 09:22 | 51.57930 | -0.78520 | 7185 ft | 253 kts | 231° |
| 2026-04-24 09:22 | 51.56859 | -0.80805 | 6624 ft | 252 kts | 230° |
| 2026-04-24 09:22 | 51.55831 | -0.83020 | 6048 ft | 249 kts | 231° |
| 2026-04-24 09:22 | 51.54800 | -0.85236 | 5500 ft | 246 kts | 231° |
| 2026-04-24 09:23 | 51.53789 | -0.87402 | 4986 ft | 243 kts | 231° |
| 2026-04-24 09:23 | 51.52751 | -0.89559 | 4382 ft | 241 kts | 226° |
| 2026-04-24 09:23 | 51.52333 | -0.90227 | 4129 ft | 240 kts | 217° |
| 2026-04-24 09:23 | 51.50877 | -0.91296 | 3554 ft | 231 kts | 185° |
| 2026-04-24 09:24 | 51.49388 | -0.91020 | 3000 ft | 223 kts | 152° |
| 2026-04-24 09:24 | 51.48322 | -0.89356 | 2599 ft | 212 kts | 117° |
| 2026-04-24 09:24 | 51.47819 | -0.87193 | 2485 ft | 204 kts | 101° |
| 2026-04-24 09:24 | 51.47680 | -0.85014 | 2532 ft | 204 kts | 91° |
| 2026-04-24 09:25 | 51.47688 | -0.82764 | 2528 ft | 195 kts | 90° |
| 2026-04-24 09:25 | 51.47669 | -0.80674 | 2482 ft | 179 kts | 91° |
| 2026-04-24 09:25 | 51.47675 | -0.78718 | 2512 ft | 174 kts | 91° |
| 2026-04-24 09:25 | 51.47678 | -0.77013 | 2510 ft | 174 kts | 91° |
| 2026-04-24 09:26 | 51.47675 | -0.75101 | 2505 ft | 173 kts | 91° |
| 2026-04-24 09:26 | 51.47670 | -0.73166 | 2509 ft | 174 kts | 91° |
| 2026-04-24 09:26 | 51.47670 | -0.71293 | 2500 ft | 164 kts | 91° |
| 2026-04-24 09:26 | 51.47673 | -0.69478 | 2524 ft | 162 kts | 91° |
| 2026-04-24 09:27 | 51.47677 | -0.67665 | 2490 ft | 164 kts | 90° |
| 2026-04-24 09:27 | 51.47685 | -0.65844 | 2287 ft | 163 kts | 90° |
| 2026-04-24 09:27 | 51.47692 | -0.64056 | 2058 ft | 157 kts | 91° |
| 2026-04-24 09:27 | 51.47698 | -0.62436 | 1852 ft | 151 kts | 90° |
| 2026-04-24 09:28 | 51.47698 | -0.62244 | 1834 ft | 150 kts | 90° |
| 2026-04-24 09:28 | 51.47703 | -0.60921 | 1671 ft | 147 kts | 90° |
| 2026-04-24 09:28 | 51.47707 | -0.59478 | 1482 ft | 145 kts | 89° |
| 2026-04-24 09:29 | 51.47717 | -0.57924 | 1302 ft | 133 kts | 89° |
| 2026-04-24 09:29 | 51.47724 | -0.56479 | 1102 ft | 127 kts | 89° |
| 2026-04-24 09:29 | 51.47719 | -0.55072 | 943 ft | 125 kts | 89° |
| 2026-04-24 09:29 | 51.47722 | -0.53648 | 800 ft | 129 kts | 86° |
| 2026-04-24 09:30 | 51.47743 | -0.52234 | 600 ft | 127 kts | 86° |
| 2026-04-24 09:30 | 51.47745 | -0.50971 | 432 ft | 127 kts | 87° |
| 2026-04-24 09:30 | 51.47747 | -0.49581 | 255 ft | 128 kts | 89° |
| 2026-04-24 09:30 | 51.47753 | -0.48143 | 107 ft | 127 kts | 88° |
| 2026-04-24 09:31 | 51.47756 | -0.47442 | 96 ft | 119 kts | 89° |
| 2026-04-24 09:31 | 51.47759 | -0.46297 | 96 ft | 88 kts | 89° |
| 2026-04-24 09:31 | 51.47762 | -0.45470 | 94 ft | 48 kts | 90° |
| 2026-04-24 09:31 | 51.47761 | -0.45317 | 92 ft | 6 kts | 94° |
| 2026-04-24 09:32 | 51.47696 | -0.45178 | 96 ft | 17 kts | 170° |
| 2026-04-24 09:32 | 51.47609 | -0.45198 | 97 ft | 13 kts | 217° |
| 2026-04-24 09:32 | 51.47597 | -0.45259 | 96 ft | 2 kts | 272° |
| 2026-04-24 09:32 | 51.47597 | -0.45283 | 95 ft | 0 kts | 272° |
| 2026-04-24 09:34 | 51.47597 | -0.45337 | 94 ft | 10 kts | 270° |
| 2026-04-24 09:34 | 51.47596 | -0.45499 | 93 ft | 19 kts | 268° |
| 2026-04-24 09:35 | 51.47595 | -0.45664 | 95 ft | 14 kts | 270° |
| 2026-04-24 09:35 | 51.47595 | -0.45844 | 95 ft | 18 kts | 269° |
| 2026-04-24 09:35 | 51.47595 | -0.46043 | 95 ft | 18 kts | 270° |
| 2026-04-24 09:35 | 51.47594 | -0.46233 | 96 ft | 18 kts | 269° |
| 2026-04-24 09:36 | 51.47593 | -0.46456 | 96 ft | 20 kts | 269° |
| 2026-04-24 09:36 | 51.47591 | -0.46648 | 92 ft | 16 kts | 269° |
| 2026-04-24 09:36 | 51.47587 | -0.46845 | 94 ft | 20 kts | 265° |
| 2026-04-24 09:36 | 51.47582 | -0.47034 | 96 ft | 18 kts | 269° |
| 2026-04-24 09:37 | 51.47580 | -0.47263 | 96 ft | 23 kts | 269° |
| 2026-04-24 09:37 | 51.47581 | -0.47506 | 95 ft | 22 kts | 270° |
| 2026-04-24 09:37 | 51.47581 | -0.47719 | 96 ft | 15 kts | 269° |
| 2026-04-24 09:37 | 51.47580 | -0.47784 | 95 ft | 5 kts | 269° |
| 2026-04-24 09:38 | 51.47550 | -0.47855 | 94 ft | 12 kts | 212° |
| 2026-04-24 09:38 | 51.47460 | -0.47873 | 95 ft | 16 kts | 181° |
| 2026-04-24 09:38 | 51.47362 | -0.47874 | 93 ft | 0 kts | 178° |
| 2026-04-24 09:38 | 51.47352 | -0.47873 | 94 ft | 4 kts | 178° |
| 2026-04-24 09:39 | 51.47316 | -0.47857 | 97 ft | 4 kts | 139° |
| 2026-04-24 09:39 | 51.47315 | -0.47826 | 95 ft | 1 kts | 91° |
| 2026-04-24 09:39 | 51.47315 | -0.47792 | 93 ft | 5 kts | 89° |
| 2026-04-24 09:39 | 51.47316 | -0.47738 | 92 ft | 0 kts | 89° |
| 2026-04-24 09:40 | 51.47316 | -0.47726 | 92 ft | 0 kts | 89° |